Observation data for Big Lake on 07/04/2020      Previous  Date  Next       Current Mesonet Observations  Soil Data  Daily Summary Page  Observations in Plain Language
KBI1 040500Z 13004KT 26/12 A3006 RMK A01 T02640119  RH  041%=      5-min Rain = 0
KBI1 040501Z 13004KT 26/12 A3006 RMK A01 T02640119  RH  040%=      5-min Rain = 0
KBI1 040502Z 13004KT 26/12 A3006 RMK A01 T02640119  RH  041%=      5-min Rain = 0
KBI1 040503Z 13004KT 26/12 A3006 RMK A01 T02640120  RH  041%=      5-min Rain = 0
KBI1 040504Z 13004KT 26/12 A3006 RMK A01 T02640120  RH  041%=      5-min Rain = 0
KBI1 040505Z 12004KT 26/12 A3006 RMK A01 T02640120  RH  041%=      5-min Rain = 0
KBI1 040506Z 13004KT 26/12 A3006 RMK A01 T02640120  RH  041%=      5-min Rain = 0
KBI1 040507Z 12004KT 27/12 A3006 RMK A01 T02650121  RH  041%=      5-min Rain = 0
KBI1 040508Z 12005KT 27/12 A3006 RMK A01 T02650122  RH  041%=      5-min Rain = 0
KBI1 040509Z 13004KT 26/12 A3006 RMK A01 T02640122  RH  041%=      5-min Rain = 0
KBI1 040510Z 13004KT 26/12 A3006 RMK A01 T02630122  RH  041%=      5-min Rain = 0
KBI1 040511Z 13004KT 26/12 A3006 RMK A01 T02630122  RH  041%=      5-min Rain = 0
KBI1 040512Z 12005KT 26/12 A3006 RMK A01 T02630122  RH  041%=      5-min Rain = 0
KBI1 040513Z 12004KT 26/12 A3006 RMK A01 T02630122  RH  041%=      5-min Rain = 0
KBI1 040514Z 12004KT 26/12 A3006 RMK A01 T02630122  RH  041%=      5-min Rain = 0
KBI1 040515Z 11004KT 26/12 A3006 RMK A01 T02620121  RH  042%=      5-min Rain = 0
KBI1 040516Z 11005KT 26/12 A3006 RMK A01 T02620121  RH  042%=      5-min Rain = 0
KBI1 040517Z 12004KT 26/12 A3006 RMK A01 T02620121  RH  042%=      5-min Rain = 0
KBI1 040518Z 12005KT 26/12 A3006 RMK A01 T02620121  RH  042%=      5-min Rain = 0
KBI1 040519Z 11005KT 26/12 A3006 RMK A01 T02620121  RH  042%=      5-min Rain = 0
KBI1 040520Z 12005KT 26/12 A3006 RMK A01 T02620122  RH  042%=      5-min Rain = 0
KBI1 040521Z 12005KT 26/12 A3006 RMK A01 T02620122  RH  042%=      5-min Rain = 0
KBI1 040522Z 12005KT 26/12 A3006 RMK A01 T02610122  RH  042%=      5-min Rain = 0
KBI1 040523Z 12005KT 26/12 A3006 RMK A01 T02600122  RH  042%=      5-min Rain = 0
KBI1 040524Z 13005KT 26/12 A3006 RMK A01 T02600122  RH  042%=      5-min Rain = 0
KBI1 040525Z 13004KT 26/12 A3006 RMK A01 T02600122  RH  042%=      5-min Rain = 0
KBI1 040526Z 14004KT 26/12 A3005 RMK A01 T02600122  RH  042%=      5-min Rain = 0
KBI1 040527Z 14005KT 26/12 A3005 RMK A01 T02600122  RH  042%=      5-min Rain = 0
KBI1 040528Z 14004KT 26/12 A3005 RMK A01 T02600122  RH  042%=      5-min Rain = 0
KBI1 040529Z 14004KT 26/12 A3005 RMK A01 T02600122  RH  042%=      5-min Rain = 0
KBI1 040530Z 14004KT 26/12 A3005 RMK A01 T02600122  RH  042%=      5-min Rain = 0
KBI1 040531Z 14004KT 26/12 A3005 RMK A01 T02600122  RH  042%=      5-min Rain = 0
KBI1 040532Z 14004KT 26/12 A3005 RMK A01 T02590122  RH  042%=      5-min Rain = 0
KBI1 040533Z 14003KT 26/12 A3005 RMK A01 T02600122  RH  042%=      5-min Rain = 0
KBI1 040534Z 14004KT 26/12 A3005 RMK A01 T02600122  RH  042%=      5-min Rain = 0
KBI1 040535Z 14004KT 26/12 A3005 RMK A01 T02600122  RH  042%=      5-min Rain = 0
KBI1 040536Z 14003KT 26/12 A3005 RMK A01 T02600122  RH  042%=      5-min Rain = 0
KBI1 040537Z 14004KT 26/12 A3005 RMK A01 T02600122  RH  042%=      5-min Rain = 0
KBI1 040538Z 13004KT 26/12 A3005 RMK A01 T02600122  RH  042%=      5-min Rain = 0
KBI1 040539Z 14004KT 26/12 A3005 RMK A01 T02590122  RH  042%=      5-min Rain = 0
KBI1 040540Z 14004KT 26/12 A3005 RMK A01 T02590122  RH  042%=      5-min Rain = 0
KBI1 040541Z 14003KT 26/12 A3005 RMK A01 T02590122  RH  042%=      5-min Rain = 0
KBI1 040542Z 14003KT 26/12 A3005 RMK A01 T02590122  RH  042%=      5-min Rain = 0
KBI1 040543Z 14004KT 26/12 A3005 RMK A01 T02580121  RH  043%=      5-min Rain = 0
KBI1 040544Z 14003KT 26/12 A3005 RMK A01 T02580122  RH  043%=      5-min Rain = 0
KBI1 040545Z 14004KT 26/12 A3005 RMK A01 T02580122  RH  043%=      5-min Rain = 0
KBI1 040546Z 14003KT 26/12 A3005 RMK A01 T02580122  RH  043%=      5-min Rain = 0
KBI1 040547Z 14004KT 26/12 A3005 RMK A01 T02580122  RH  043%=      5-min Rain = 0
KBI1 040548Z 14003KT 26/12 A3005 RMK A01 T02570122  RH  043%=      5-min Rain = 0
KBI1 040549Z 15003KT 26/12 A3005 RMK A01 T02570123  RH  043%=      5-min Rain = 0
KBI1 040550Z 14003KT 26/12 A3005 RMK A01 T02560123  RH  043%=      5-min Rain = 0
KBI1 040551Z 14003KT 26/12 A3005 RMK A01 T02550123  RH  044%=      5-min Rain = 0
KBI1 040552Z 14003KT 26/12 A3005 RMK A01 T02550123  RH  044%=      5-min Rain = 0
KBI1 040553Z 15003KT 26/12 A3005 RMK A01 T02550122  RH  044%=      5-min Rain = 0
KBI1 040554Z 14003KT 26/12 A3005 RMK A01 T02550123  RH  044%=      5-min Rain = 0
KBI1 040555Z 15003KT 26/12 A3005 RMK A01 T02550123  RH  044%=      5-min Rain = 0
KBI1 040556Z 14004KT 26/12 A3005 RMK A01 T02550123  RH  044%=      5-min Rain = 0
KBI1 040557Z 14003KT 26/12 A3005 RMK A01 T02550123  RH  044%=      5-min Rain = 0
KBI1 040558Z 14003KT 26/12 A3005 RMK A01 T02550123  RH  044%=      5-min Rain = 0
KBI1 040559Z 14003KT 26/12 A3005 RMK A01 T02550123  RH  044%=      5-min Rain = 0
KBI1 040600Z 14004KT 25/12 A3005 RMK A01 T02540123  RH  044%=      5-min Rain = 0
KBI1 040601Z 14003KT 26/12 A3005 RMK A01 T02550123  RH  044%=      5-min Rain = 0
KBI1 040602Z 15003KT 25/12 A3005 RMK A01 T02540123  RH  044%=      5-min Rain = 0
KBI1 040603Z 15003KT 25/12 A3005 RMK A01 T02540123  RH  044%=      5-min Rain = 0
KBI1 040604Z 14004KT 25/12 A3005 RMK A01 T02540123  RH  044%=      5-min Rain = 0
KBI1 040605Z 14003KT 25/12 A3005 RMK A01 T02530123  RH  044%=      5-min Rain = 0
KBI1 040606Z 15003KT 25/12 A3005 RMK A01 T02530123  RH  044%=      5-min Rain = 0
KBI1 040607Z 14004KT 25/12 A3005 RMK A01 T02530123  RH  044%=      5-min Rain = 0
KBI1 040608Z 14004KT 25/12 A3005 RMK A01 T02530124  RH  045%=      5-min Rain = 0
KBI1 040609Z 15004KT 25/12 A3005 RMK A01 T02530124  RH  045%=      5-min Rain = 0
KBI1 040610Z 15003KT 25/13 A3005 RMK A01 T02530125  RH  045%=      5-min Rain = 0
KBI1 040611Z 15003KT 25/12 A3005 RMK A01 T02520124  RH  045%=      5-min Rain = 0
KBI1 040612Z 14004KT 25/12 A3005 RMK A01 T02520124  RH  045%=      5-min Rain = 0
KBI1 040613Z 14003KT 25/12 A3005 RMK A01 T02520124  RH  045%=      5-min Rain = 0
KBI1 040614Z 14003KT 25/13 A3005 RMK A01 T02520125  RH  045%=      5-min Rain = 0
KBI1 040615Z 14003KT 25/13 A3005 RMK A01 T02510125  RH  045%=      5-min Rain = 0
KBI1 040616Z 15004KT 25/13 A3005 RMK A01 T02510125  RH  046%=      5-min Rain = 0
KBI1 040617Z 14004KT 25/13 A3005 RMK A01 T02500125  RH  046%=      5-min Rain = 0
KBI1 040618Z 15004KT 25/13 A3005 RMK A01 T02500125  RH  046%=      5-min Rain = 0
KBI1 040619Z 14003KT 25/13 A3005 RMK A01 T02500125  RH  046%=      5-min Rain = 0
KBI1 040620Z 15004KT 25/13 A3005 RMK A01 T02500126  RH  046%=      5-min Rain = 0
KBI1 040621Z 15004KT 25/13 A3005 RMK A01 T02500126  RH  046%=      5-min Rain = 0
KBI1 040622Z 15004KT 25/13 A3005 RMK A01 T02500126  RH  046%=      5-min Rain = 0
KBI1 040623Z 16003KT 25/13 A3005 RMK A01 T02490126  RH  046%=      5-min Rain = 0
KBI1 040624Z 16004KT 25/13 A3005 RMK A01 T02490126  RH  046%=      5-min Rain = 0
KBI1 040625Z 16004KT 25/13 A3005 RMK A01 T02490126  RH  046%=      5-min Rain = 0
KBI1 040626Z 16004KT 25/13 A3005 RMK A01 T02490127  RH  047%=      5-min Rain = 0
KBI1 040627Z 17004KT 25/13 A3005 RMK A01 T02480127  RH  047%=      5-min Rain = 0
KBI1 040628Z 16004KT 25/13 A3005 RMK A01 T02480127  RH  047%=      5-min Rain = 0
KBI1 040629Z 16004KT 25/13 A3005 RMK A01 T02460127  RH  047%=      5-min Rain = 0
KBI1 040630Z 16005KT 25/13 A3005 RMK A01 T02460127  RH  047%=      5-min Rain = 0
KBI1 040631Z 16005KT 25/13 A3005 RMK A01 T02450127  RH  048%=      5-min Rain = 0
KBI1 040632Z 16005KT 25/13 A3005 RMK A01 T02450127  RH  048%=      5-min Rain = 0
KBI1 040633Z 16004KT 25/13 A3005 RMK A01 T02450127  RH  048%=      5-min Rain = 0
KBI1 040634Z 16004KT 24/13 A3005 RMK A01 T02440127  RH  048%=      5-min Rain = 0
KBI1 040635Z 16005KT 24/13 A3005 RMK A01 T02440127  RH  048%=      5-min Rain = 0
KBI1 040636Z 16004KT 24/13 A3005 RMK A01 T02440127  RH  048%=      5-min Rain = 0
KBI1 040637Z 16005KT 24/13 A3005 RMK A01 T02440126  RH  048%=      5-min Rain = 0
KBI1 040638Z 16005KT 24/13 A3005 RMK A01 T02440126  RH  048%=      5-min Rain = 0
KBI1 040639Z 16004KT 25/13 A3005 RMK A01 T02450126  RH  048%=      5-min Rain = 0
KBI1 040640Z 16004KT 25/13 A3005 RMK A01 T02450126  RH  047%=      5-min Rain = 0
KBI1 040641Z 16005KT 25/13 A3005 RMK A01 T02450126  RH  047%=      5-min Rain = 0
KBI1 040642Z 16004KT 25/13 A3005 RMK A01 T02450126  RH  047%=      5-min Rain = 0
KBI1 040643Z 16004KT 25/13 A3005 RMK A01 T02460126  RH  047%=      5-min Rain = 0
KBI1 040644Z 16004KT 25/13 A3005 RMK A01 T02450126  RH  047%=      5-min Rain = 0
KBI1 040645Z 16004KT 25/13 A3005 RMK A01 T02450126  RH  047%=      5-min Rain = 0
KBI1 040646Z 15004KT 25/13 A3005 RMK A01 T02450126  RH  047%=      5-min Rain = 0
KBI1 040647Z 15004KT 25/13 A3005 RMK A01 T02450126  RH  047%=      5-min Rain = 0
KBI1 040648Z 15004KT 25/13 A3005 RMK A01 T02450126  RH  047%=      5-min Rain = 0
KBI1 040649Z 15004KT 25/13 A3005 RMK A01 T02450126  RH  047%=      5-min Rain = 0
KBI1 040650Z 15004KT 25/13 A3005 RMK A01 T02450126  RH  047%=      5-min Rain = 0
KBI1 040651Z 16004KT 25/13 A3005 RMK A01 T02450126  RH  047%=      5-min Rain = 0
KBI1 040652Z 16004KT 25/13 A3005 RMK A01 T02450126  RH  047%=      5-min Rain = 0
KBI1 040653Z 16005KT 25/13 A3005 RMK A01 T02450126  RH  047%=      5-min Rain = 0
KBI1 040654Z 16005KT 25/13 A3005 RMK A01 T02450126  RH  047%=      5-min Rain = 0
KBI1 040655Z 17005KT 25/13 A3005 RMK A01 T02450126  RH  047%=      5-min Rain = 0
KBI1 040656Z 16005KT 25/13 A3005 RMK A01 T02450126  RH  047%=      5-min Rain = 0
KBI1 040657Z 16006KT 25/13 A3005 RMK A01 T02450126  RH  047%=      5-min Rain = 0
KBI1 040658Z 16006KT 25/13 A3004 RMK A01 T02450126  RH  047%=      5-min Rain = 0
KBI1 040659Z 16006KT 25/13 A3004 RMK A01 T02450126  RH  047%=      5-min Rain = 0
KBI1 040700Z 16006KT 25/13 A3004 RMK A01 T02450126  RH  047%=      5-min Rain = 0
KBI1 040701Z 16005KT 25/13 A3004 RMK A01 T02450126  RH  047%=      5-min Rain = 0
KBI1 040702Z 16005KT 25/13 A3004 RMK A01 T02450126  RH  048%=      5-min Rain = 0
KBI1 040703Z 16005KT 24/13 A3004 RMK A01 T02440126  RH  048%=      5-min Rain = 0
KBI1 040704Z 16005KT 24/13 A3004 RMK A01 T02440126  RH  048%=      5-min Rain = 0
KBI1 040705Z 16006KT 24/13 A3004 RMK A01 T02440127  RH  048%=      5-min Rain = 0
KBI1 040706Z 16006KT 24/13 A3004 RMK A01 T02430126  RH  048%=      5-min Rain = 0
KBI1 040707Z 16006KT 24/13 A3004 RMK A01 T02430127  RH  048%=      5-min Rain = 0
KBI1 040708Z 16005KT 24/13 A3004 RMK A01 T02430127  RH  048%=      5-min Rain = 0
KBI1 040709Z 16005KT 24/13 A3004 RMK A01 T02420127  RH  049%=      5-min Rain = 0
KBI1 040710Z 16005KT 24/13 A3004 RMK A01 T02410127  RH  049%=      5-min Rain = 0
KBI1 040711Z 16005KT 24/13 A3004 RMK A01 T02410127  RH  049%=      5-min Rain = 0
KBI1 040712Z 16005KT 24/13 A3004 RMK A01 T02410128  RH  049%=      5-min Rain = 0
KBI1 040713Z 16004KT 24/13 A3004 RMK A01 T02410128  RH  049%=      5-min Rain = 0
KBI1 040714Z 16005KT 24/13 A3004 RMK A01 T02410128  RH  049%=      5-min Rain = 0
KBI1 040715Z 16005KT 24/13 A3004 RMK A01 T02400128  RH  049%=      5-min Rain = 0
KBI1 040716Z 16005KT 24/13 A3004 RMK A01 T02400129  RH  050%=      5-min Rain = 0
KBI1 040717Z 16006KT 24/13 A3004 RMK A01 T02400129  RH  050%=      5-min Rain = 0
KBI1 040718Z 16005KT 24/13 A3004 RMK A01 T02390128  RH  050%=      5-min Rain = 0
KBI1 040719Z 16005KT 24/13 A3004 RMK A01 T02390129  RH  050%=      5-min Rain = 0
KBI1 040720Z 15005KT 24/13 A3004 RMK A01 T02390129  RH  050%=      5-min Rain = 0
KBI1 040721Z 16005KT 24/13 A3004 RMK A01 T02380129  RH  050%=      5-min Rain = 0
KBI1 040722Z 16006KT 24/13 A3004 RMK A01 T02380129  RH  051%=      5-min Rain = 0
KBI1 040723Z 16005KT 24/13 A3004 RMK A01 T02370129  RH  051%=      5-min Rain = 0
KBI1 040724Z 16005KT 24/13 A3004 RMK A01 T02370130  RH  051%=      5-min Rain = 0
KBI1 040725Z 16005KT 24/13 A3004 RMK A01 T02370130  RH  051%=      5-min Rain = 0
KBI1 040726Z 16006KT 24/13 A3004 RMK A01 T02370130  RH  051%=      5-min Rain = 0
KBI1 040727Z 16005KT 24/13 A3004 RMK A01 T02370130  RH  051%=      5-min Rain = 0
KBI1 040728Z 16006KT 24/13 A3004 RMK A01 T02370130  RH  051%=      5-min Rain = 0
KBI1 040729Z 16005KT 24/13 A3004 RMK A01 T02370130  RH  051%=      5-min Rain = 0
KBI1 040730Z 16006KT 24/13 A3003 RMK A01 T02370130  RH  051%=      5-min Rain = 0
KBI1 040731Z 16006KT 24/13 A3003 RMK A01 T02370130  RH  051%=      5-min Rain = 0
KBI1 040732Z 16006KT 24/13 A3003 RMK A01 T02370131  RH  051%=      5-min Rain = 0
KBI1 040733Z 16007KT 24/13 A3003 RMK A01 T02370130  RH  051%=      5-min Rain = 0
KBI1 040734Z 16006KT 24/13 A3003 RMK A01 T02370131  RH  051%=      5-min Rain = 0
KBI1 040735Z 16006KT 24/13 A3003 RMK A01 T02360130  RH  052%=      5-min Rain = 0
KBI1 040736Z 17007KT 24/13 A3003 RMK A01 T02360131  RH  052%=      5-min Rain = 0
KBI1 040737Z 16007KT 24/13 A3003 RMK A01 T02350131  RH  052%=      5-min Rain = 0
KBI1 040738Z 16005KT 24/13 A3003 RMK A01 T02350131  RH  052%=      5-min Rain = 0
KBI1 040739Z 17006KT 24/13 A3003 RMK A01 T02350131  RH  052%=      5-min Rain = 0
KBI1 040740Z 17006KT 24/13 A3003 RMK A01 T02350131  RH  052%=      5-min Rain = 0
KBI1 040741Z 17006KT 23/13 A3003 RMK A01 T02340131  RH  052%=      5-min Rain = 0
KBI1 040742Z 17005KT 23/13 A3003 RMK A01 T02340131  RH  052%=      5-min Rain = 0
KBI1 040743Z 17006KT 24/13 A3003 RMK A01 T02350131  RH  052%=      5-min Rain = 0
KBI1 040744Z 17006KT 24/13 A3003 RMK A01 T02350131  RH  052%=      5-min Rain = 0
KBI1 040745Z 17006KT 24/13 A3003 RMK A01 T02350131  RH  052%=      5-min Rain = 0
KBI1 040746Z 17006KT 24/13 A3003 RMK A01 T02350131  RH  052%=      5-min Rain = 0
KBI1 040747Z 17006KT 24/13 A3003 RMK A01 T02350131  RH  052%=      5-min Rain = 0
KBI1 040748Z 17006KT 23/13 A3003 RMK A01 T02340131  RH  052%=      5-min Rain = 0
KBI1 040749Z 17005KT 23/13 A3003 RMK A01 T02330131  RH  053%=      5-min Rain = 0
KBI1 040750Z 17006KT 23/13 A3003 RMK A01 T02330131  RH  053%=      5-min Rain = 0
KBI1 040751Z 17006KT 23/13 A3002 RMK A01 T02320132  RH  053%=      5-min Rain = 0
KBI1 040752Z 17005KT 23/13 A3002 RMK A01 T02320131  RH  053%=      5-min Rain = 0
KBI1 040753Z 17005KT 23/13 A3002 RMK A01 T02320132  RH  053%=      5-min Rain = 0
KBI1 040754Z 18006KT 23/13 A3002 RMK A01 T02310132  RH  054%=      5-min Rain = 0
KBI1 040755Z 18007KT 23/13 A3002 RMK A01 T02310132  RH  054%=      5-min Rain = 0
KBI1 040756Z 18006KT 23/13 A3002 RMK A01 T02310132  RH  054%=      5-min Rain = 0
KBI1 040757Z 18006KT 23/13 A3002 RMK A01 T02300132  RH  054%=      5-min Rain = 0
KBI1 040758Z 18006KT 23/13 A3002 RMK A01 T02300132  RH  054%=      5-min Rain = 0
KBI1 040759Z 17006KT 23/13 A3002 RMK A01 T02300132  RH  054%=      5-min Rain = 0
KBI1 040800Z 17006KT 23/13 A3002 RMK A01 T02300133  RH  054%=      5-min Rain = 0
KBI1 040801Z 18006KT 23/13 A3002 RMK A01 T02300133  RH  054%=      5-min Rain = 0
KBI1 040802Z 17006KT 23/13 A3002 RMK A01 T02300133  RH  054%=      5-min Rain = 0
KBI1 040803Z 17006KT 23/13 A3002 RMK A01 T02310134  RH  054%=      5-min Rain = 0
KBI1 040804Z 17007KT 23/13 A3002 RMK A01 T02310134  RH  054%=      5-min Rain = 0
KBI1 040805Z 17006KT 23/14 A3002 RMK A01 T02320135  RH  054%=      5-min Rain = 0
KBI1 040806Z 17007KT 23/14 A3002 RMK A01 T02330135  RH  054%=      5-min Rain = 0
KBI1 040807Z 16007KT 24/14 A3002 RMK A01 T02350136  RH  054%=      5-min Rain = 0
KBI1 040808Z 17007KT 24/14 A3003 RMK A01 T02360137  RH  054%=      5-min Rain = 0
KBI1 040809Z 17007KT 24/14 A3003 RMK A01 T02370137  RH  054%=      5-min Rain = 0
KBI1 040810Z 17007KT 24/14 A3003 RMK A01 T02380138  RH  054%=      5-min Rain = 0
KBI1 040811Z 16007KT 24/14 A3003 RMK A01 T02390138  RH  053%=      5-min Rain = 0
KBI1 040812Z 17007KT 24/14 A3003 RMK A01 T02390139  RH  053%=      5-min Rain = 0
KBI1 040813Z 17007KT 24/14 A3003 RMK A01 T02400139  RH  053%=      5-min Rain = 0
KBI1 040814Z 16007KT 24/14 A3003 RMK A01 T02400139  RH  053%=      5-min Rain = 0
KBI1 040815Z 16007KT 24/14 A3003 RMK A01 T02400140  RH  053%=      5-min Rain = 0
KBI1 040816Z 16007KT 24/14 A3003 RMK A01 T02400140  RH  054%=      5-min Rain = 0
KBI1 040817Z 16006KT 24/14 A3003 RMK A01 T02400141  RH  054%=      5-min Rain = 0
KBI1 040818Z 16007KT 24/14 A3003 RMK A01 T02410141  RH  054%=      5-min Rain = 0
KBI1 040819Z 16006KT 24/14 A3003 RMK A01 T02410142  RH  054%=      5-min Rain = 0
KBI1 040820Z 16006KT 24/14 A3003 RMK A01 T02420142  RH  054%=      5-min Rain = 0
KBI1 040821Z 16007KT 24/14 A3003 RMK A01 T02430142  RH  053%=      5-min Rain = 0
KBI1 040822Z 16007KT 24/14 A3003 RMK A01 T02430142  RH  053%=      5-min Rain = 0
KBI1 040823Z 15005KT 24/14 A3003 RMK A01 T02430142  RH  053%=      5-min Rain = 0
KBI1 040824Z 16007KT 24/14 A3003 RMK A01 T02430142  RH  053%=      5-min Rain = 0
KBI1 040825Z 16007KT 24/14 A3003 RMK A01 T02430143  RH  053%=      5-min Rain = 0
KBI1 040826Z 16006KT 24/14 A3003 RMK A01 T02430143  RH  054%=      5-min Rain = 0
KBI1 040827Z 15005KT 24/14 A3003 RMK A01 T02420143  RH  054%=      5-min Rain = 0
KBI1 040828Z 15003KT 24/14 A3003 RMK A01 T02410143  RH  054%=      5-min Rain = 0
KBI1 040829Z 15005KT 24/14 A3003 RMK A01 T02400143  RH  054%=      5-min Rain = 0
KBI1 040830Z 15005KT 24/14 A3003 RMK A01 T02390142  RH  055%=      5-min Rain = 0
KBI1 040831Z 15005KT 24/14 A3003 RMK A01 T02390142  RH  055%=      5-min Rain = 0
KBI1 040832Z 15005KT 24/14 A3003 RMK A01 T02380142  RH  055%=      5-min Rain = 0
KBI1 040833Z 15005KT 24/14 A3003 RMK A01 T02380142  RH  055%=      5-min Rain = 0
KBI1 040834Z 14004KT 24/14 A3003 RMK A01 T02370142  RH  055%=      5-min Rain = 0
KBI1 040835Z 14005KT 24/14 A3003 RMK A01 T02360142  RH  056%=      5-min Rain = 0
KBI1 040836Z 15005KT 24/14 A3003 RMK A01 T02360143  RH  056%=      5-min Rain = 0
KBI1 040837Z 15003KT 24/14 A3003 RMK A01 T02360144  RH  056%=      5-min Rain = 0
KBI1 040838Z 15004KT 24/14 A3003 RMK A01 T02350144  RH  057%=      5-min Rain = 0
KBI1 040839Z 15005KT 24/15 A3003 RMK A01 T02350145  RH  057%=      5-min Rain = 0
KBI1 040840Z 14004KT 24/15 A3003 RMK A01 T02360145  RH  057%=      5-min Rain = 0
KBI1 040841Z 15004KT 24/15 A3003 RMK A01 T02360146  RH  057%=      5-min Rain = 0
KBI1 040842Z 15004KT 24/15 A3003 RMK A01 T02360146  RH  057%=      5-min Rain = 0
KBI1 040843Z 15004KT 24/15 A3004 RMK A01 T02370147  RH  057%=      5-min Rain = 0
KBI1 040844Z 15005KT 24/15 A3004 RMK A01 T02370147  RH  057%=      5-min Rain = 0
KBI1 040845Z 15004KT 24/15 A3004 RMK A01 T02360147  RH  057%=      5-min Rain = 0
KBI1 040846Z 16004KT 24/15 A3004 RMK A01 T02360147  RH  057%=      5-min Rain = 0
KBI1 040847Z 15004KT 24/15 A3004 RMK A01 T02370148  RH  057%=      5-min Rain = 0
KBI1 040848Z 16003KT 24/15 A3004 RMK A01 T02360148  RH  058%=      5-min Rain = 0
KBI1 040849Z 15004KT 24/15 A3004 RMK A01 T02360148  RH  058%=      5-min Rain = 0
KBI1 040850Z 15003KT 24/15 A3004 RMK A01 T02360148  RH  058%=      5-min Rain = 0
KBI1 040851Z 16004KT 24/15 A3004 RMK A01 T02350148  RH  058%=      5-min Rain = 0
KBI1 040852Z 15003KT 24/15 A3004 RMK A01 T02350149  RH  058%=      5-min Rain = 0
KBI1 040853Z 15004KT 24/15 A3004 RMK A01 T02350150  RH  059%=      5-min Rain = 0
KBI1 040854Z 14003KT 24/15 A3004 RMK A01 T02350150  RH  059%=      5-min Rain = 0
KBI1 040855Z 15003KT 24/15 A3004 RMK A01 T02350150  RH  059%=      5-min Rain = 0
KBI1 040856Z 15003KT 24/15 A3004 RMK A01 T02350151  RH  059%=      5-min Rain = 0
KBI1 040857Z 15004KT 23/15 A3004 RMK A01 T02340151  RH  059%=      5-min Rain = 0
KBI1 040858Z 14003KT 23/15 A3004 RMK A01 T02340151  RH  060%=      5-min Rain = 0
KBI1 040859Z 15004KT 24/15 A3004 RMK A01 T02350152  RH  060%=      5-min Rain = 0
KBI1 040900Z 16004KT 24/15 A3004 RMK A01 T02350152  RH  060%=      5-min Rain = 0
KBI1 040901Z 15003KT 24/15 A3004 RMK A01 T02350152  RH  060%=      5-min Rain = 0
KBI1 040902Z 15004KT 24/15 A3004 RMK A01 T02360153  RH  060%=      5-min Rain = 0
KBI1 040903Z 17005KT 24/15 A3004 RMK A01 T02360153  RH  060%=      5-min Rain = 0
KBI1 040904Z 16004KT 24/15 A3004 RMK A01 T02360154  RH  060%=      5-min Rain = 0
KBI1 040905Z 16004KT 24/15 A3004 RMK A01 T02360154  RH  060%=      5-min Rain = 0
KBI1 040906Z 16004KT 24/15 A3004 RMK A01 T02360154  RH  060%=      5-min Rain = 0
KBI1 040907Z 16004KT 24/15 A3004 RMK A01 T02360154  RH  060%=      5-min Rain = 0
KBI1 040908Z 17005KT 24/15 A3004 RMK A01 T02360154  RH  060%=      5-min Rain = 0
KBI1 040909Z 16004KT 24/15 A3004 RMK A01 T02350154  RH  061%=      5-min Rain = 0
KBI1 040910Z 16005KT 23/15 A3004 RMK A01 T02340154  RH  061%=      5-min Rain = 0
KBI1 040911Z 16005KT 23/16 A3004 RMK A01 T02340155  RH  061%=      5-min Rain = 0
KBI1 040912Z 15004KT 23/16 A3004 RMK A01 T02340155  RH  061%=      5-min Rain = 0
KBI1 040913Z 15004KT 23/16 A3004 RMK A01 T02340155  RH  061%=      5-min Rain = 0
KBI1 040914Z 16004KT 23/16 A3004 RMK A01 T02340155  RH  061%=      5-min Rain = 0
KBI1 040915Z 16004KT 23/16 A3004 RMK A01 T02340156  RH  062%=      5-min Rain = 0
KBI1 040916Z 16004KT 23/16 A3004 RMK A01 T02330156  RH  062%=      5-min Rain = 0
KBI1 040917Z 16005KT 23/16 A3004 RMK A01 T02340156  RH  062%=      5-min Rain = 0
KBI1 040918Z 16004KT 23/16 A3004 RMK A01 T02340156  RH  062%=      5-min Rain = 0
KBI1 040919Z 16005KT 23/16 A3004 RMK A01 T02340156  RH  062%=      5-min Rain = 0
KBI1 040920Z 17004KT 23/16 A3004 RMK A01 T02340157  RH  062%=      5-min Rain = 0
KBI1 040921Z 17004KT 23/16 A3004 RMK A01 T02340157  RH  062%=      5-min Rain = 0
KBI1 040922Z 17004KT 23/16 A3004 RMK A01 T02330156  RH  062%=      5-min Rain = 0
KBI1 040923Z 17005KT 23/16 A3004 RMK A01 T02320156  RH  062%=      5-min Rain = 0
KBI1 040924Z 17005KT 23/16 A3004 RMK A01 T02320157  RH  063%=      5-min Rain = 0
KBI1 040925Z 17004KT 23/16 A3004 RMK A01 T02310157  RH  063%=      5-min Rain = 0
KBI1 040926Z 17004KT 23/16 A3004 RMK A01 T02310157  RH  063%=      5-min Rain = 0
KBI1 040927Z 17004KT 23/16 A3004 RMK A01 T02300156  RH  063%=      5-min Rain = 0
KBI1 040928Z 17004KT 23/16 A3004 RMK A01 T02290156  RH  063%=      5-min Rain = 0
KBI1 040929Z 17004KT 23/16 A3004 RMK A01 T02280156  RH  064%=      5-min Rain = 0
KBI1 040930Z 17004KT 23/16 A3004 RMK A01 T02270156  RH  064%=      5-min Rain = 0
KBI1 040931Z 17004KT 23/16 A3004 RMK A01 T02270156  RH  064%=      5-min Rain = 0
KBI1 040932Z 17004KT 23/16 A3004 RMK A01 T02270156  RH  064%=      5-min Rain = 0
KBI1 040933Z 17004KT 23/16 A3004 RMK A01 T02260156  RH  065%=      5-min Rain = 0
KBI1 040934Z 17005KT 23/16 A3004 RMK A01 T02260156  RH  065%=      5-min Rain = 0
KBI1 040935Z 16005KT 23/16 A3004 RMK A01 T02260157  RH  065%=      5-min Rain = 0
KBI1 040936Z 17005KT 23/16 A3004 RMK A01 T02250157  RH  065%=      5-min Rain = 0
KBI1 040937Z 17005KT 23/16 A3004 RMK A01 T02260157  RH  065%=      5-min Rain = 0
KBI1 040938Z 17005KT 23/16 A3004 RMK A01 T02260157  RH  065%=      5-min Rain = 0
KBI1 040939Z 17005KT 23/16 A3004 RMK A01 T02270158  RH  065%=      5-min Rain = 0
KBI1 040940Z 17005KT 23/16 A3004 RMK A01 T02270158  RH  065%=      5-min Rain = 0
KBI1 040941Z 17005KT 23/16 A3004 RMK A01 T02270158  RH  065%=      5-min Rain = 0
KBI1 040942Z 17006KT 23/16 A3004 RMK A01 T02280159  RH  065%=      5-min Rain = 0
KBI1 040943Z 17005KT 23/16 A3004 RMK A01 T02280159  RH  065%=      5-min Rain = 0
KBI1 040944Z 17005KT 23/16 A3004 RMK A01 T02280158  RH  065%=      5-min Rain = 0
KBI1 040945Z 17005KT 23/16 A3004 RMK A01 T02280159  RH  065%=      5-min Rain = 0
KBI1 040946Z 17005KT 23/16 A3004 RMK A01 T02270158  RH  065%=      5-min Rain = 0
KBI1 040947Z 17005KT 23/16 A3004 RMK A01 T02280159  RH  065%=      5-min Rain = 0
KBI1 040948Z 17005KT 23/16 A3004 RMK A01 T02270159  RH  065%=      5-min Rain = 0
KBI1 040949Z 17005KT 23/16 A3004 RMK A01 T02270159  RH  065%=      5-min Rain = 0
KBI1 040950Z 17005KT 23/16 A3004 RMK A01 T02270159  RH  065%=      5-min Rain = 0
KBI1 040951Z 17004KT 23/16 A3004 RMK A01 T02260159  RH  066%=      5-min Rain = 0
KBI1 040952Z 17005KT 23/16 A3004 RMK A01 T02260159  RH  066%=      5-min Rain = 0
KBI1 040953Z 17005KT 23/16 A3004 RMK A01 T02250159  RH  066%=      5-min Rain = 0
KBI1 040954Z 17004KT 23/16 A3004 RMK A01 T02250159  RH  066%=      5-min Rain = 0
KBI1 040955Z 17004KT 22/16 A3004 RMK A01 T02240158  RH  066%=      5-min Rain = 0
KBI1 040956Z 17005KT 22/16 A3004 RMK A01 T02240159  RH  067%=      5-min Rain = 0
KBI1 040957Z 17005KT 22/16 A3004 RMK A01 T02230158  RH  067%=      5-min Rain = 0
KBI1 040958Z 17005KT 22/16 A3004 RMK A01 T02230159  RH  067%=      5-min Rain = 0
KBI1 040959Z 17005KT 22/16 A3004 RMK A01 T02230159  RH  067%=      5-min Rain = 0
KBI1 041000Z 17005KT 22/16 A3004 RMK A01 T02230159  RH  067%=      5-min Rain = 0
KBI1 041001Z 18004KT 22/16 A3004 RMK A01 T02230159  RH  067%=      5-min Rain = 0
KBI1 041002Z 18005KT 22/16 A3004 RMK A01 T02220159  RH  067%=      5-min Rain = 0
KBI1 041003Z 18005KT 22/16 A3004 RMK A01 T02220159  RH  067%=      5-min Rain = 0
KBI1 041004Z 18005KT 22/16 A3004 RMK A01 T02220159  RH  067%=      5-min Rain = 0
KBI1 041005Z 19004KT 22/16 A3004 RMK A01 T02220159  RH  067%=      5-min Rain = 0
KBI1 041006Z 20003KT 22/16 A3004 RMK A01 T02210158  RH  068%=      5-min Rain = 0
KBI1 041007Z 20004KT 22/16 A3004 RMK A01 T02210159  RH  068%=      5-min Rain = 0
KBI1 041008Z 21004KT 22/16 A3004 RMK A01 T02210159  RH  068%=      5-min Rain = 0
KBI1 041009Z 22003KT 22/16 A3004 RMK A01 T02210159  RH  068%=      5-min Rain = 0
KBI1 041010Z 22003KT 22/16 A3004 RMK A01 T02200158  RH  068%=      5-min Rain = 0
KBI1 041011Z 22004KT 22/16 A3004 RMK A01 T02190158  RH  068%=      5-min Rain = 0
KBI1 041012Z 22004KT 22/16 A3004 RMK A01 T02190158  RH  068%=      5-min Rain = 0
KBI1 041013Z 22004KT 22/16 A3004 RMK A01 T02180158  RH  069%=      5-min Rain = 0
KBI1 041014Z 22004KT 22/16 A3004 RMK A01 T02180158  RH  069%=      5-min Rain = 0
KBI1 041015Z 22004KT 22/16 A3004 RMK A01 T02180159  RH  069%=      5-min Rain = 0
KBI1 041016Z 21004KT 22/16 A3004 RMK A01 T02190159  RH  069%=      5-min Rain = 0
KBI1 041017Z 21004KT 22/16 A3004 RMK A01 T02190159  RH  069%=      5-min Rain = 0
KBI1 041018Z 20004KT 22/16 A3004 RMK A01 T02190159  RH  068%=      5-min Rain = 0
KBI1 041019Z 20004KT 22/16 A3004 RMK A01 T02200159  RH  068%=      5-min Rain = 0
KBI1 041020Z 20004KT 22/16 A3004 RMK A01 T02200159  RH  068%=      5-min Rain = 0
KBI1 041021Z 20004KT 22/16 A3004 RMK A01 T02220160  RH  068%=      5-min Rain = 0
KBI1 041022Z 20003KT 22/16 A3004 RMK A01 T02220159  RH  068%=      5-min Rain = 0
KBI1 041023Z 20004KT 22/16 A3004 RMK A01 T02220159  RH  067%=      5-min Rain = 0
KBI1 041024Z 20004KT 22/16 A3004 RMK A01 T02220159  RH  068%=      5-min Rain = 0
KBI1 041025Z 20004KT 22/16 A3004 RMK A01 T02220160  RH  068%=      5-min Rain = 0
KBI1 041026Z 20004KT 22/16 A3004 RMK A01 T02220160  RH  068%=      5-min Rain = 0
KBI1 041027Z 20004KT 22/16 A3004 RMK A01 T02220160  RH  068%=      5-min Rain = 0
KBI1 041028Z 20004KT 22/16 A3004 RMK A01 T02220160  RH  068%=      5-min Rain = 0
KBI1 041029Z 20004KT 22/16 A3004 RMK A01 T02220160  RH  068%=      5-min Rain = 0
KBI1 041030Z 20004KT 22/16 A3004 RMK A01 T02220160  RH  068%=      5-min Rain = 0
KBI1 041031Z 20004KT 22/16 A3004 RMK A01 T02210160  RH  068%=      5-min Rain = 0
KBI1 041032Z 20004KT 22/16 A3004 RMK A01 T02210159  RH  068%=      5-min Rain = 0
KBI1 041033Z 20005KT 22/16 A3004 RMK A01 T02210160  RH  068%=      5-min Rain = 0
KBI1 041034Z 20005KT 22/16 A3004 RMK A01 T02200160  RH  068%=      5-min Rain = 0
KBI1 041035Z 19005KT 22/16 A3004 RMK A01 T02200160  RH  069%=      5-min Rain = 0
KBI1 041036Z 19005KT 22/16 A3004 RMK A01 T02190160  RH  069%=      5-min Rain = 0
KBI1 041037Z 19005KT 22/16 A3004 RMK A01 T02190160  RH  069%=      5-min Rain = 0
KBI1 041038Z 19005KT 22/16 A3004 RMK A01 T02180160  RH  070%=      5-min Rain = 0
KBI1 041039Z 18005KT 22/16 A3004 RMK A01 T02170160  RH  070%=      5-min Rain = 0
KBI1 041040Z 18005KT 22/16 A3004 RMK A01 T02170161  RH  070%=      5-min Rain = 0
KBI1 041041Z 18005KT 22/16 A3004 RMK A01 T02170161  RH  070%=      5-min Rain = 0
KBI1 041042Z 18005KT 22/16 A3004 RMK A01 T02170161  RH  070%=      5-min Rain = 0
KBI1 041043Z 18005KT 22/16 A3004 RMK A01 T02170161  RH  070%=      5-min Rain = 0
KBI1 041044Z 18005KT 22/16 A3004 RMK A01 T02170161  RH  070%=      5-min Rain = 0
KBI1 041045Z 18004KT 22/16 A3004 RMK A01 T02170161  RH  070%=      5-min Rain = 0
KBI1 041046Z 18004KT 22/16 A3004 RMK A01 T02170161  RH  070%=      5-min Rain = 0
KBI1 041047Z 18005KT 22/16 A3004 RMK A01 T02170161  RH  070%=      5-min Rain = 0
KBI1 041048Z 18004KT 22/16 A3004 RMK A01 T02170161  RH  070%=      5-min Rain = 0
KBI1 041049Z 17004KT 22/16 A3004 RMK A01 T02180161  RH  070%=      5-min Rain = 0
KBI1 041050Z 17005KT 22/16 A3004 RMK A01 T02170161  RH  071%=      5-min Rain = 0
KBI1 041051Z 17005KT 22/16 A3004 RMK A01 T02170161  RH  071%=      5-min Rain = 0
KBI1 041052Z 17005KT 22/16 A3004 RMK A01 T02180162  RH  071%=      5-min Rain = 0
KBI1 041053Z 17005KT 22/16 A3004 RMK A01 T02180162  RH  070%=      5-min Rain = 0
KBI1 041054Z 17005KT 22/16 A3004 RMK A01 T02180162  RH  070%=      5-min Rain = 0
KBI1 041055Z 18004KT 22/16 A3004 RMK A01 T02180162  RH  070%=      5-min Rain = 0
KBI1 041056Z 18005KT 22/16 A3004 RMK A01 T02180162  RH  070%=      5-min Rain = 0
KBI1 041057Z 17005KT 22/16 A3003 RMK A01 T02180162  RH  071%=      5-min Rain = 0
KBI1 041058Z 18005KT 22/16 A3003 RMK A01 T02170162  RH  071%=      5-min Rain = 0
KBI1 041059Z 18006KT 22/16 A3003 RMK A01 T02170161  RH  071%=      5-min Rain = 0
KBI1 041100Z 18006KT 22/16 A3004 RMK A01 T02160161  RH  071%=      5-min Rain = 0
KBI1 041101Z 17005KT 22/16 A3003 RMK A01 T02160162  RH  071%=      5-min Rain = 0
KBI1 041102Z 17005KT 22/16 A3003 RMK A01 T02150161  RH  072%=      5-min Rain = 0
KBI1 041103Z 17005KT 22/16 A3003 RMK A01 T02150162  RH  072%=      5-min Rain = 0
KBI1 041104Z 17005KT 22/16 A3003 RMK A01 T02150162  RH  072%=      5-min Rain = 0
KBI1 041105Z 17006KT 22/16 A3003 RMK A01 T02160162  RH  072%=      5-min Rain = 0
KBI1 041106Z 17005KT 22/16 A3003 RMK A01 T02170163  RH  071%=      5-min Rain = 0
KBI1 041107Z 17005KT 22/16 A3003 RMK A01 T02170163  RH  071%=      5-min Rain = 0
KBI1 041108Z 17005KT 22/16 A3004 RMK A01 T02170163  RH  071%=      5-min Rain = 0
KBI1 041109Z 17005KT 22/16 A3004 RMK A01 T02180163  RH  071%=      5-min Rain = 0
KBI1 041110Z 17004KT 22/16 A3004 RMK A01 T02180163  RH  071%=      5-min Rain = 0
KBI1 041111Z 17005KT 22/16 A3004 RMK A01 T02170163  RH  071%=      5-min Rain = 0
KBI1 041112Z 17005KT 22/16 A3004 RMK A01 T02170162  RH  071%=      5-min Rain = 0
KBI1 041113Z 17005KT 22/16 A3004 RMK A01 T02160162  RH  071%=      5-min Rain = 0
KBI1 041114Z 18005KT 22/16 A3004 RMK A01 T02150162  RH  072%=      5-min Rain = 0
KBI1 041115Z 18005KT 22/16 A3004 RMK A01 T02150162  RH  072%=      5-min Rain = 0
KBI1 041116Z 17005KT 22/16 A3004 RMK A01 T02150162  RH  072%=      5-min Rain = 0
KBI1 041117Z 18005KT 21/16 A3004 RMK A01 T02140162  RH  072%=      5-min Rain = 0
KBI1 041118Z 18004KT 21/16 A3004 RMK A01 T02140163  RH  072%=      5-min Rain = 0
KBI1 041119Z 17004KT 21/16 A3003 RMK A01 T02140163  RH  072%=      5-min Rain = 0
KBI1 041120Z 17005KT 21/16 A3003 RMK A01 T02140162  RH  073%=      5-min Rain = 0
KBI1 041121Z 17005KT 21/16 A3003 RMK A01 T02130162  RH  073%=      5-min Rain = 0
KBI1 041122Z 17005KT 21/16 A3003 RMK A01 T02130163  RH  073%=      5-min Rain = 0
KBI1 041123Z 17005KT 21/16 A3003 RMK A01 T02130163  RH  073%=      5-min Rain = 0
KBI1 041124Z 17005KT 21/16 A3003 RMK A01 T02130163  RH  073%=      5-min Rain = 0
KBI1 041125Z 18005KT 21/16 A3003 RMK A01 T02130163  RH  073%=      5-min Rain = 0
KBI1 041126Z 18005KT 21/16 A3003 RMK A01 T02130164  RH  073%=      5-min Rain = 0
KBI1 041127Z 18006KT 21/16 A3003 RMK A01 T02130163  RH  073%=      5-min Rain = 0
KBI1 041128Z 18006KT 21/16 A3003 RMK A01 T02130163  RH  073%=      5-min Rain = 0
KBI1 041129Z 18006KT 21/16 A3003 RMK A01 T02130163  RH  073%=      5-min Rain = 0
KBI1 041130Z 18006KT 21/16 A3003 RMK A01 T02130163  RH  073%=      5-min Rain = 0
KBI1 041131Z 17006KT 21/16 A3003 RMK A01 T02130163  RH  073%=      5-min Rain = 0
KBI1 041132Z 18006KT 21/16 A3003 RMK A01 T02130163  RH  073%=      5-min Rain = 0
KBI1 041133Z 17005KT 21/16 A3003 RMK A01 T02130163  RH  073%=      5-min Rain = 0
KBI1 041134Z 17005KT 21/16 A3003 RMK A01 T02130164  RH  073%=      5-min Rain = 0
KBI1 041135Z 17005KT 21/16 A3003 RMK A01 T02140164  RH  073%=      5-min Rain = 0
KBI1 041136Z 17005KT 21/16 A3003 RMK A01 T02140164  RH  073%=      5-min Rain = 0
KBI1 041137Z 17005KT 21/16 A3004 RMK A01 T02140164  RH  073%=      5-min Rain = 0
KBI1 041138Z 17005KT 21/16 A3004 RMK A01 T02140164  RH  073%=      5-min Rain = 0
KBI1 041139Z 18005KT 22/16 A3004 RMK A01 T02150164  RH  073%=      5-min Rain = 0
KBI1 041140Z 18004KT 21/16 A3004 RMK A01 T02140164  RH  073%=      5-min Rain = 0
KBI1 041141Z 18005KT 21/16 A3004 RMK A01 T02140164  RH  073%=      5-min Rain = 0
KBI1 041142Z 18005KT 21/16 A3004 RMK A01 T02130163  RH  073%=      5-min Rain = 0
KBI1 041143Z 19006KT 21/16 A3004 RMK A01 T02130163  RH  073%=      5-min Rain = 0
KBI1 041144Z 19006KT 21/16 A3004 RMK A01 T02120163  RH  074%=      5-min Rain = 0
KBI1 041145Z 19006KT 21/16 A3003 RMK A01 T02110163  RH  074%=      5-min Rain = 0
KBI1 041146Z 19006KT 21/16 A3003 RMK A01 T02110164  RH  074%=      5-min Rain = 0
KBI1 041147Z 19007KT 21/16 A3003 RMK A01 T02110164  RH  074%=      5-min Rain = 0
KBI1 041148Z 18008KT 21/16 A3003 RMK A01 T02110164  RH  075%=      5-min Rain = 0
KBI1 041149Z 18008KT 21/16 A3003 RMK A01 T02110164  RH  075%=      5-min Rain = 0
KBI1 041150Z 18008KT 21/16 A3003 RMK A01 T02110164  RH  075%=      5-min Rain = 0
KBI1 041151Z 18007KT 21/16 A3003 RMK A01 T02110164  RH  075%=      5-min Rain = 0
KBI1 041152Z 18007KT 21/17 A3003 RMK A01 T02120165  RH  074%=      5-min Rain = 0
KBI1 041153Z 18007KT 21/17 A3003 RMK A01 T02130165  RH  074%=      5-min Rain = 0
KBI1 041154Z 18006KT 21/17 A3003 RMK A01 T02140165  RH  074%=      5-min Rain = 0
KBI1 041155Z 18006KT 21/17 A3004 RMK A01 T02140165  RH  074%=      5-min Rain = 0
KBI1 041156Z 18005KT 22/17 A3004 RMK A01 T02150165  RH  073%=      5-min Rain = 0
KBI1 041157Z 18005KT 22/17 A3004 RMK A01 T02150165  RH  073%=      5-min Rain = 0
KBI1 041158Z 18005KT 22/17 A3004 RMK A01 T02150165  RH  073%=      5-min Rain = 0
KBI1 041159Z 18005KT 22/17 A3004 RMK A01 T02150165  RH  073%=      5-min Rain = 0
KBI1 041200Z 18005KT 22/17 A3004 RMK A01 T02160166  RH  073%=      5-min Rain = 0
KBI1 041201Z 18005KT 22/17 A3004 RMK A01 T02160166  RH  073%=      5-min Rain = 0
KBI1 041202Z 18005KT 22/17 A3004 RMK A01 T02160166  RH  073%=      5-min Rain = 0
KBI1 041203Z 18005KT 22/17 A3004 RMK A01 T02170166  RH  073%=      5-min Rain = 0
KBI1 041204Z 18005KT 22/17 A3004 RMK A01 T02170166  RH  073%=      5-min Rain = 0
KBI1 041205Z 18005KT 22/17 A3004 RMK A01 T02180166  RH  072%=      5-min Rain = 0
KBI1 041206Z 18006KT 22/17 A3004 RMK A01 T02180166  RH  072%=      5-min Rain = 0
KBI1 041207Z 18005KT 22/17 A3004 RMK A01 T02180166  RH  072%=      5-min Rain = 0
KBI1 041208Z 18005KT 22/17 A3004 RMK A01 T02180166  RH  073%=      5-min Rain = 0
KBI1 041209Z 18005KT 22/17 A3004 RMK A01 T02180167  RH  073%=      5-min Rain = 0
KBI1 041210Z 18005KT 22/17 A3004 RMK A01 T02180167  RH  073%=      5-min Rain = 0
KBI1 041211Z 18004KT 22/17 A3004 RMK A01 T02180167  RH  073%=      5-min Rain = 0
KBI1 041212Z 18005KT 22/17 A3004 RMK A01 T02180167  RH  073%=      5-min Rain = 0
KBI1 041213Z 18005KT 22/17 A3004 RMK A01 T02180167  RH  073%=      5-min Rain = 0
KBI1 041214Z 18005KT 22/17 A3004 RMK A01 T02180167  RH  073%=      5-min Rain = 0
KBI1 041215Z 18005KT 22/17 A3004 RMK A01 T02190167  RH  072%=      5-min Rain = 0
KBI1 041216Z 18005KT 22/17 A3004 RMK A01 T02190167  RH  072%=      5-min Rain = 0
KBI1 041217Z 18004KT 22/17 A3004 RMK A01 T02200167  RH  072%=      5-min Rain = 0
KBI1 041218Z 18004KT 22/17 A3004 RMK A01 T02200168  RH  072%=      5-min Rain = 0
KBI1 041219Z 18004KT 22/17 A3004 RMK A01 T02210168  RH  072%=      5-min Rain = 0
KBI1 041220Z 19004KT 22/17 A3004 RMK A01 T02210168  RH  072%=      5-min Rain = 0
KBI1 041221Z 19005KT 22/17 A3004 RMK A01 T02210167  RH  072%=      5-min Rain = 0
KBI1 041222Z 18004KT 22/17 A3004 RMK A01 T02210168  RH  072%=      5-min Rain = 0
KBI1 041223Z 18004KT 22/17 A3004 RMK A01 T02220168  RH  072%=      5-min Rain = 0
KBI1 041224Z 18004KT 22/17 A3004 RMK A01 T02220168  RH  071%=      5-min Rain = 0
KBI1 041225Z 17004KT 22/17 A3004 RMK A01 T02230169  RH  071%=      5-min Rain = 0
KBI1 041226Z 17003KT 22/17 A3004 RMK A01 T02230168  RH  071%=      5-min Rain = 0
KBI1 041227Z 16004KT 22/17 A3004 RMK A01 T02230168  RH  071%=      5-min Rain = 0
KBI1 041228Z 16004KT 22/17 A3004 RMK A01 T02240169  RH  071%=      5-min Rain = 0
KBI1 041229Z 15004KT 22/17 A3004 RMK A01 T02240169  RH  071%=      5-min Rain = 0
KBI1 041230Z 15004KT 23/17 A3004 RMK A01 T02250169  RH  071%=      5-min Rain = 0
KBI1 041231Z 15004KT 23/17 A3005 RMK A01 T02250169  RH  071%=      5-min Rain = 0
KBI1 041232Z 15004KT 23/17 A3005 RMK A01 T02260170  RH  070%=      5-min Rain = 0
KBI1 041233Z 15004KT 23/17 A3005 RMK A01 T02270170  RH  070%=      5-min Rain = 0
KBI1 041234Z 15004KT 23/17 A3005 RMK A01 T02270170  RH  070%=      5-min Rain = 0
KBI1 041235Z 15004KT 23/17 A3005 RMK A01 T02280170  RH  070%=      5-min Rain = 0
KBI1 041236Z 15004KT 23/17 A3005 RMK A01 T02280170  RH  069%=      5-min Rain = 0
KBI1 041237Z 15004KT 23/17 A3004 RMK A01 T02290170  RH  069%=      5-min Rain = 0
KBI1 041238Z 16004KT 23/17 A3004 RMK A01 T02290170  RH  069%=      5-min Rain = 0
KBI1 041239Z 17004KT 23/17 A3004 RMK A01 T02290170  RH  069%=      5-min Rain = 0
KBI1 041240Z 16005KT 23/17 A3004 RMK A01 T02290170  RH  069%=      5-min Rain = 0
KBI1 041241Z 17004KT 23/17 A3004 RMK A01 T02300170  RH  069%=      5-min Rain = 0
KBI1 041242Z 17005KT 23/17 A3004 RMK A01 T02290170  RH  069%=      5-min Rain = 0
KBI1 041243Z 16005KT 23/17 A3004 RMK A01 T02290170  RH  069%=      5-min Rain = 0
KBI1 041244Z 16004KT 23/17 A3004 RMK A01 T02300170  RH  069%=      5-min Rain = 0
KBI1 041245Z 16004KT 23/17 A3005 RMK A01 T02300170  RH  069%=      5-min Rain = 0
KBI1 041246Z 16004KT 23/17 A3005 RMK A01 T02300170  RH  069%=      5-min Rain = 0
KBI1 041247Z 16004KT 23/17 A3005 RMK A01 T02310171  RH  069%=      5-min Rain = 0
KBI1 041248Z 15004KT 23/17 A3005 RMK A01 T02310171  RH  069%=      5-min Rain = 0
KBI1 041249Z 15003KT 23/17 A3005 RMK A01 T02320171  RH  069%=      5-min Rain = 0
KBI1 041250Z 15003KT 23/17 A3005 RMK A01 T02330172  RH  068%=      5-min Rain = 0
KBI1 041251Z 14004KT 23/17 A3005 RMK A01 T02330172  RH  068%=      5-min Rain = 0
KBI1 041252Z 14003KT 23/17 A3005 RMK A01 T02340171  RH  068%=      5-min Rain = 0
KBI1 041253Z 15003KT 23/17 A3005 RMK A01 T02340172  RH  068%=      5-min Rain = 0
KBI1 041254Z 15003KT 24/17 A3005 RMK A01 T02350172  RH  068%=      5-min Rain = 0
KBI1 041255Z 15003KT 24/17 A3005 RMK A01 T02350172  RH  068%=      5-min Rain = 0
KBI1 041256Z 15002KT 24/17 A3005 RMK A01 T02360172  RH  068%=      5-min Rain = 0
KBI1 041257Z 15004KT 24/17 A3005 RMK A01 T02360172  RH  067%=      5-min Rain = 0
KBI1 041258Z 15004KT 24/17 A3005 RMK A01 T02360172  RH  067%=      5-min Rain = 0
KBI1 041259Z 15004KT 24/17 A3005 RMK A01 T02360172  RH  067%=      5-min Rain = 0
KBI1 041300Z 15004KT 24/17 A3005 RMK A01 T02370172  RH  067%=      5-min Rain = 0
KBI1 041301Z 16005KT 24/17 A3005 RMK A01 T02370172  RH  067%=      5-min Rain = 0
KBI1 041302Z 16004KT 24/17 A3005 RMK A01 T02370172  RH  067%=      5-min Rain = 0
KBI1 041303Z 16005KT 24/17 A3005 RMK A01 T02370172  RH  067%=      5-min Rain = 0
KBI1 041304Z 16006KT 24/17 A3005 RMK A01 T02370172  RH  067%=      5-min Rain = 0
KBI1 041305Z 16004KT 24/17 A3005 RMK A01 T02370172  RH  067%=      5-min Rain = 0
KBI1 041306Z 16004KT 24/17 A3005 RMK A01 T02370173  RH  067%=      5-min Rain = 0
KBI1 041307Z 15005KT 24/17 A3005 RMK A01 T02380173  RH  067%=      5-min Rain = 0
KBI1 041308Z 16004KT 24/17 A3005 RMK A01 T02380172  RH  067%=      5-min Rain = 0
KBI1 041309Z 16005KT 24/17 A3005 RMK A01 T02380172  RH  066%=      5-min Rain = 0
KBI1 041310Z 16006KT 24/17 A3005 RMK A01 T02390172  RH  066%=      5-min Rain = 0
KBI1 041311Z 16005KT 24/17 A3005 RMK A01 T02390172  RH  066%=      5-min Rain = 0
KBI1 041312Z 16004KT 24/17 A3005 RMK A01 T02390172  RH  066%=      5-min Rain = 0
KBI1 041313Z 17004KT 24/17 A3005 RMK A01 T02400173  RH  066%=      5-min Rain = 0
KBI1 041314Z 16004KT 24/17 A3005 RMK A01 T02410173  RH  066%=      5-min Rain = 0
KBI1 041315Z 16004KT 24/17 A3005 RMK A01 T02420173  RH  065%=      5-min Rain = 0
KBI1 041316Z 18005KT 24/17 A3005 RMK A01 T02420173  RH  066%=      5-min Rain = 0
KBI1 041317Z 17006KT 24/17 A3005 RMK A01 T02430173  RH  065%=      5-min Rain = 0
KBI1 041318Z 17006KT 24/17 A3005 RMK A01 T02440173  RH  065%=      5-min Rain = 0
KBI1 041319Z 17007KT 24/17 A3005 RMK A01 T02440173  RH  065%=      5-min Rain = 0
KBI1 041320Z 17005KT 24/17 A3005 RMK A01 T02440173  RH  065%=      5-min Rain = 0
KBI1 041321Z 17006KT 24/17 A3005 RMK A01 T02440174  RH  065%=      5-min Rain = 0
KBI1 041322Z 16006KT 24/17 A3005 RMK A01 T02440173  RH  065%=      5-min Rain = 0
KBI1 041323Z 16006KT 25/17 A3005 RMK A01 T02450174  RH  065%=      5-min Rain = 0
KBI1 041324Z 16005KT 25/17 A3005 RMK A01 T02450174  RH  064%=      5-min Rain = 0
KBI1 041325Z 16007KT 25/17 A3005 RMK A01 T02460174  RH  064%=      5-min Rain = 0
KBI1 041326Z 16007KT 25/17 A3005 RMK A01 T02460174  RH  064%=      5-min Rain = 0
KBI1 041327Z 16006KT 25/18 A3005 RMK A01 T02460175  RH  064%=      5-min Rain = 0
KBI1 041328Z 16005KT 25/18 A3005 RMK A01 T02460175  RH  065%=      5-min Rain = 0
KBI1 041329Z 16007KT 25/18 A3005 RMK A01 T02470175  RH  064%=      5-min Rain = 0
KBI1 041330Z 16008KT 25/18 A3005 RMK A01 T02470175  RH  064%=      5-min Rain = 0
KBI1 041331Z 16007KT 25/18 A3005 RMK A01 T02470176  RH  064%=      5-min Rain = 0
KBI1 041332Z 16007KT 25/18 A3005 RMK A01 T02480176  RH  064%=      5-min Rain = 0
KBI1 041333Z 15005KT 25/18 A3005 RMK A01 T02480176  RH  064%=      5-min Rain = 0
KBI1 041334Z 16005KT 25/18 A3005 RMK A01 T02480177  RH  064%=      5-min Rain = 0
KBI1 041335Z 16006KT 25/18 A3005 RMK A01 T02500178  RH  064%=      5-min Rain = 0
KBI1 041336Z 16006KT 25/18 A3005 RMK A01 T02510178  RH  064%=      5-min Rain = 0
KBI1 041337Z 15007KT 25/18 A3005 RMK A01 T02520178  RH  064%=      5-min Rain = 0
KBI1 041338Z 16006KT 25/18 A3005 RMK A01 T02520178  RH  063%=      5-min Rain = 0
KBI1 041339Z 17005KT 25/18 A3005 RMK A01 T02530179  RH  063%=      5-min Rain = 0
KBI1 041340Z 16008KT 26/18 A3005 RMK A01 T02550179  RH  063%=      5-min Rain = 0
KBI1 041341Z 17008KT 26/18 A3005 RMK A01 T02550178  RH  063%=      5-min Rain = 0
KBI1 041342Z 17007KT 26/18 A3005 RMK A01 T02550179  RH  063%=      5-min Rain = 0
KBI1 041343Z 17007KT 26/18 A3005 RMK A01 T02550179  RH  063%=      5-min Rain = 0
KBI1 041344Z 16005KT 26/18 A3005 RMK A01 T02570180  RH  063%=      5-min Rain = 0
KBI1 041345Z 16006KT 26/18 A3005 RMK A01 T02580181  RH  062%=      5-min Rain = 0
KBI1 041346Z 16007KT 26/18 A3005 RMK A01 T02590180  RH  062%=      5-min Rain = 0
KBI1 041347Z 17006KT 26/18 A3005 RMK A01 T02590180  RH  062%=      5-min Rain = 0
KBI1 041348Z 18009KT 26/18 A3005 RMK A01 T02590180  RH  062%=      5-min Rain = 0
KBI1 041349Z 17008KT 26/18 A3005 RMK A01 T02590179  RH  061%=      5-min Rain = 0
KBI1 041350Z 17009KT 26/18 A3005 RMK A01 T02590180  RH  062%=      5-min Rain = 0
KBI1 041351Z 16010KT 26/18 A3005 RMK A01 T02600180  RH  061%=      5-min Rain = 0
KBI1 041352Z 18008KT 26/18 A3005 RMK A01 T02600181  RH  061%=      5-min Rain = 0
KBI1 041353Z 17009KT 26/18 A3005 RMK A01 T02610180  RH  061%=      5-min Rain = 0
KBI1 041354Z 17010KT 26/18 A3005 RMK A01 T02610180  RH  061%=      5-min Rain = 0
KBI1 041355Z 18010KT 26/18 A3005 RMK A01 T02620181  RH  061%=      5-min Rain = 0
KBI1 041356Z 18009KT 26/18 A3005 RMK A01 T02620181  RH  061%=      5-min Rain = 0
KBI1 041357Z 18010KT 26/18 A3005 RMK A01 T02630180  RH  060%=      5-min Rain = 0
KBI1 041358Z 18011KT 26/18 A3005 RMK A01 T02630180  RH  060%=      5-min Rain = 0
KBI1 041359Z 18011KT 26/18 A3005 RMK A01 T02630180  RH  060%=      5-min Rain = 0
KBI1 041400Z 18011KT 26/18 A3005 RMK A01 T02630180  RH  060%=      5-min Rain = 0
KBI1 041401Z 17010KT 26/18 A3005 RMK A01 T02630180  RH  060%=      5-min Rain = 0
KBI1 041402Z 17011KT 26/18 A3005 RMK A01 T02640180  RH  060%=      5-min Rain = 0
KBI1 041403Z 18011KT 26/18 A3005 RMK A01 T02640180  RH  060%=      5-min Rain = 0
KBI1 041404Z 17011KT 26/18 A3005 RMK A01 T02640179  RH  060%=      5-min Rain = 0
KBI1 041405Z 17012KT 26/18 A3005 RMK A01 T02640180  RH  060%=      5-min Rain = 0
KBI1 041406Z 17012KT 26/18 A3005 RMK A01 T02640179  RH  060%=      5-min Rain = 0
KBI1 041407Z 17013KT 26/18 A3005 RMK A01 T02640179  RH  060%=      5-min Rain = 0
KBI1 041408Z 17011KT 26/18 A3005 RMK A01 T02630179  RH  060%=      5-min Rain = 0
KBI1 041409Z 17013KT 26/18 A3005 RMK A01 T02640179  RH  060%=      5-min Rain = 0
KBI1 041410Z 17012KT 26/18 A3005 RMK A01 T02640179  RH  059%=      5-min Rain = 0
KBI1 041411Z 17013KT 26/18 A3005 RMK A01 T02640179  RH  059%=      5-min Rain = 0
KBI1 041412Z 17012KT 26/18 A3005 RMK A01 T02640178  RH  059%=      5-min Rain = 0
KBI1 041413Z 17012KT 27/18 A3005 RMK A01 T02650180  RH  059%=      5-min Rain = 0
KBI1 041414Z 18010KT 27/18 A3005 RMK A01 T02670180  RH  059%=      5-min Rain = 0
KBI1 041415Z 18010KT 27/18 A3006 RMK A01 T02670180  RH  059%=      5-min Rain = 0
KBI1 041416Z 18011KT 27/18 A3005 RMK A01 T02680180  RH  058%=      5-min Rain = 0
KBI1 041417Z 19010KT 27/18 A3005 RMK A01 T02680180  RH  058%=      5-min Rain = 0
KBI1 041418Z 18009KT 27/18 A3006 RMK A01 T02690181  RH  058%=      5-min Rain = 0
KBI1 041419Z 18009KT 27/18 A3006 RMK A01 T02700181  RH  058%=      5-min Rain = 0
KBI1 041420Z 18009KT 27/18 A3006 RMK A01 T02700182  RH  058%=      5-min Rain = 0
KBI1 041421Z 16007KT 27/18 A3006 RMK A01 T02700182  RH  059%=      5-min Rain = 0
KBI1 041422Z 17008KT 27/18 A3006 RMK A01 T02710183  RH  058%=      5-min Rain = 0
KBI1 041423Z 18009KT 27/18 A3006 RMK A01 T02730183  RH  058%=      5-min Rain = 0
KBI1 041424Z 18010KT 27/18 A3006 RMK A01 T02740183  RH  058%=      5-min Rain = 0
KBI1 041425Z 16007KT 27/18 A3006 RMK A01 T02720183  RH  058%=      5-min Rain = 0
KBI1 041426Z 16007KT 27/18 A3006 RMK A01 T02720183  RH  058%=      5-min Rain = 0
KBI1 041427Z 15008KT 27/18 A3006 RMK A01 T02730183  RH  058%=      5-min Rain = 0
KBI1 041428Z 17008KT 28/18 A3006 RMK A01 T02750183  RH  057%=      5-min Rain = 0
KBI1 041429Z 16007KT 28/18 A3006 RMK A01 T02760183  RH  057%=      5-min Rain = 0
KBI1 041430Z 17006KT 28/18 A3006 RMK A01 T02770183  RH  057%=      5-min Rain = 0
KBI1 041431Z 15007KT 28/18 A3006 RMK A01 T02780183  RH  056%=      5-min Rain = 0
KBI1 041432Z 16007KT 28/18 A3006 RMK A01 T02780183  RH  056%=      5-min Rain = 0
KBI1 041433Z 17010KT 28/18 A3006 RMK A01 T02770182  RH  056%=      5-min Rain = 0
KBI1 041434Z 16008KT 28/18 A3006 RMK A01 T02760183  RH  057%=      5-min Rain = 0
KBI1 041435Z 15008KT 28/18 A3006 RMK A01 T02760182  RH  057%=      5-min Rain = 0
KBI1 041436Z 15008KT 28/18 A3006 RMK A01 T02760181  RH  056%=      5-min Rain = 0
KBI1 041437Z 15006KT 28/18 A3006 RMK A01 T02760182  RH  056%=      5-min Rain = 0
KBI1 041438Z 16009KT 28/18 A3006 RMK A01 T02780182  RH  056%=      5-min Rain = 0
KBI1 041439Z 16006KT 28/18 A3006 RMK A01 T02790182  RH  056%=      5-min Rain = 0
KBI1 041440Z 16007KT 28/18 A3006 RMK A01 T02800182  RH  055%=      5-min Rain = 0
KBI1 041441Z 16008KT 28/18 A3006 RMK A01 T02800181  RH  055%=      5-min Rain = 0
KBI1 041442Z 17006KT 28/18 A3006 RMK A01 T02780182  RH  056%=      5-min Rain = 0
KBI1 041443Z 18006KT 28/18 A3006 RMK A01 T02780183  RH  056%=      5-min Rain = 0
KBI1 041444Z 17010KT 28/18 A3006 RMK A01 T02810183  RH  055%=      5-min Rain = 0
KBI1 041445Z 16009KT 28/18 A3006 RMK A01 T02810181  RH  054%=      5-min Rain = 0
KBI1 041446Z 15008KT 28/18 A3006 RMK A01 T02790181  RH  055%=      5-min Rain = 0
KBI1 041447Z 16007KT 28/18 A3006 RMK A01 T02790182  RH  055%=      5-min Rain = 0
KBI1 041448Z 17008KT 28/18 A3006 RMK A01 T02800182  RH  055%=      5-min Rain = 0
KBI1 041449Z 17009KT 28/18 A3006 RMK A01 T02800181  RH  055%=      5-min Rain = 0
KBI1 041450Z 17009KT 28/18 A3006 RMK A01 T02810180  RH  054%=      5-min Rain = 0
KBI1 041451Z 16007KT 28/18 A3006 RMK A01 T02800181  RH  055%=      5-min Rain = 0
KBI1 041452Z 16009KT 28/18 A3006 RMK A01 T02800181  RH  055%=      5-min Rain = 0
KBI1 041453Z 17010KT 28/18 A3006 RMK A01 T02810180  RH  054%=      5-min Rain = 0
KBI1 041454Z 18008KT 28/18 A3006 RMK A01 T02810179  RH  054%=      5-min Rain = 0
KBI1 041455Z 18008KT 28/18 A3006 RMK A01 T02810181  RH  054%=      5-min Rain = 0
KBI1 041456Z 19008KT 28/18 A3006 RMK A01 T02820181  RH  054%=      5-min Rain = 0
KBI1 041457Z 18008KT 28/18 A3006 RMK A01 T02830182  RH  054%=      5-min Rain = 0
KBI1 041458Z 18008KT 28/18 A3006 RMK A01 T02840183  RH  054%=      5-min Rain = 0
KBI1 041459Z 17007KT 29/19 A3006 RMK A01 T02860185  RH  054%=      5-min Rain = 0
KBI1 041500Z 16008KT 29/19 A3006 RMK A01 T02900185  RH  053%=      5-min Rain = 0
KBI1 041501Z 15008KT 29/18 A3006 RMK A01 T02880184  RH  053%=      5-min Rain = 0
KBI1 041502Z 15007KT 29/18 A3006 RMK A01 T02850184  RH  054%=      5-min Rain = 0
KBI1 041503Z 17007KT 28/18 A3006 RMK A01 T02840183  RH  054%=      5-min Rain = 0
KBI1 041504Z 16007KT 29/18 A3006 RMK A01 T02860181  RH  053%=      5-min Rain = 0
KBI1 041505Z 15006KT 29/18 A3006 RMK A01 T02870183  RH  053%=      5-min Rain = 0
KBI1 041506Z 15007KT 29/18 A3006 RMK A01 T02880184  RH  054%=      5-min Rain = 0
KBI1 041507Z 16007KT 29/18 A3006 RMK A01 T02890184  RH  053%=      5-min Rain = 0
KBI1 041508Z 15008KT 29/18 A3006 RMK A01 T02900184  RH  053%=      5-min Rain = 0
KBI1 041509Z 16007KT 29/18 A3006 RMK A01 T02900183  RH  052%=      5-min Rain = 0
KBI1 041510Z 15006KT 29/18 A3006 RMK A01 T02900184  RH  053%=      5-min Rain = 0
KBI1 041511Z 16008KT 29/18 A3006 RMK A01 T02890184  RH  053%=      5-min Rain = 0
KBI1 041512Z 15007KT 29/19 A3006 RMK A01 T02890185  RH  053%=      5-min Rain = 0
KBI1 041513Z 14007KT 29/19 A3006 RMK A01 T02900185  RH  053%=      5-min Rain = 0
KBI1 041514Z 15006KT 29/19 A3006 RMK A01 T02910185  RH  053%=      5-min Rain = 0
KBI1 041515Z 16008KT 29/19 A3006 RMK A01 T02920185  RH  053%=      5-min Rain = 0
KBI1 041516Z 16007KT 29/18 A3006 RMK A01 T02920183  RH  052%=      5-min Rain = 0
KBI1 041517Z 16008KT 29/18 A3005 RMK A01 T02900184  RH  053%=      5-min Rain = 0
KBI1 041518Z 15008KT 29/18 A3005 RMK A01 T02910183  RH  052%=      5-min Rain = 0
KBI1 041519Z 16007KT 29/18 A3005 RMK A01 T02890181  RH  052%=      5-min Rain = 0
KBI1 041520Z 15008KT 29/18 A3005 RMK A01 T02890181  RH  052%=      5-min Rain = 0
KBI1 041521Z 15006KT 29/18 A3005 RMK A01 T02900180  RH  051%=      5-min Rain = 0
KBI1 041522Z 15007KT 29/18 A3005 RMK A01 T02890181  RH  052%=      5-min Rain = 0
KBI1 041523Z 16007KT 29/18 A3005 RMK A01 T02910182  RH  052%=      5-min Rain = 0
KBI1 041524Z 17005KT 29/18 A3005 RMK A01 T02940184  RH  052%=      5-min Rain = 0
KBI1 041525Z 17005KT 30/19 A3005 RMK A01 T02960185  RH  051%=      5-min Rain = 0
KBI1 041526Z 17006KT 30/18 A3005 RMK A01 T02980183  RH  050%=      5-min Rain = 0
KBI1 041527Z 16007KT 30/18 A3005 RMK A01 T02990181  RH  049%=      5-min Rain = 0
KBI1 041528Z 17008KT 30/18 A3006 RMK A01 T02990178  RH  048%=      5-min Rain = 0
KBI1 041529Z 19008KT 30/18 A3006 RMK A01 T03000178  RH  048%=      5-min Rain = 0
KBI1 041530Z 19008KT 30/18 A3006 RMK A01 T03010177  RH  047%=      5-min Rain = 0
KBI1 041531Z 18008KT 30/18 A3006 RMK A01 T03010180  RH  048%=      5-min Rain = 0
KBI1 041532Z 16008KT 30/18 A3006 RMK A01 T03020178  RH  048%=      5-min Rain = 0
KBI1 041533Z 16007KT 30/18 A3006 RMK A01 T02990180  RH  049%=      5-min Rain = 0
KBI1 041534Z 16008G13KT 30/18 A3006 RMK A01 T02990177  RH  048%=      5-min Rain = 0
KBI1 041535Z 16010KT 30/17 A3006 RMK A01 T03000174  RH  047%=      5-min Rain = 0
KBI1 041536Z 17010KT 30/17 A3006 RMK A01 T03000172  RH  046%=      5-min Rain = 0
KBI1 041537Z 17008KT 30/18 A3006 RMK A01 T03000175  RH  047%=      5-min Rain = 0
KBI1 041538Z 16009KT 30/18 A3006 RMK A01 T03000176  RH  047%=      5-min Rain = 0
KBI1 041539Z 16009KT 30/18 A3006 RMK A01 T03010178  RH  048%=      5-min Rain = 0
KBI1 041540Z 16009KT 30/18 A3006 RMK A01 T03000175  RH  047%=      5-min Rain = 0
KBI1 041541Z 16008KT 30/17 A3006 RMK A01 T03000174  RH  047%=      5-min Rain = 0
KBI1 041542Z 17008KT 30/18 A3005 RMK A01 T03010175  RH  047%=      5-min Rain = 0
KBI1 041543Z 18009KT 30/18 A3005 RMK A01 T03020176  RH  047%=      5-min Rain = 0
KBI1 041544Z 17009KT 30/18 A3005 RMK A01 T03030177  RH  047%=      5-min Rain = 0
KBI1 041545Z 18007KT 30/18 A3005 RMK A01 T03030178  RH  047%=      5-min Rain = 0
KBI1 041546Z 18010KT 30/18 A3005 RMK A01 T03020179  RH  048%=      5-min Rain = 0
KBI1 041547Z 15009KT 30/18 A3005 RMK A01 T03030179  RH  047%=      5-min Rain = 0
KBI1 041548Z 15007KT 30/18 A3005 RMK A01 T03030179  RH  047%=      5-min Rain = 0
KBI1 041549Z 15006KT 30/18 A3005 RMK A01 T03030179  RH  047%=      5-min Rain = 0
KBI1 041550Z 16008KT 30/18 A3005 RMK A01 T03040180  RH  047%=      5-min Rain = 0
KBI1 041551Z 17010KT 31/18 A3005 RMK A01 T03050179  RH  047%=      5-min Rain = 0
KBI1 041552Z 17010KT 30/18 A3006 RMK A01 T03040180  RH  047%=      5-min Rain = 0
KBI1 041553Z 18007KT 30/18 A3006 RMK A01 T03030181  RH  048%=      5-min Rain = 0
KBI1 041554Z 18006KT 30/18 A3005 RMK A01 T03030181  RH  048%=      5-min Rain = 0
KBI1 041555Z 16006KT 31/18 A3005 RMK A01 T03050179  RH  047%=      5-min Rain = 0
KBI1 041556Z 16009KT 31/18 A3006 RMK A01 T03060179  RH  047%=      5-min Rain = 0
KBI1 041557Z 15007KT 31/18 A3006 RMK A01 T03060179  RH  047%=      5-min Rain = 0
KBI1 041558Z 15007KT 31/18 A3006 RMK A01 T03060180  RH  047%=      5-min Rain = 0
KBI1 041559Z 16007G12KT 31/18 A3006 RMK A01 T03050180  RH  047%=      5-min Rain = 0
KBI1 041600Z 16010KT 31/17 A3006 RMK A01 T03060170  RH  044%=      5-min Rain = 0
KBI1 041601Z 16010KT 31/17 A3006 RMK A01 T03060171  RH  044%=      5-min Rain = 0
KBI1 041602Z 17010KT 31/18 A3006 RMK A01 T03060175  RH  045%=      5-min Rain = 0
KBI1 041603Z 17009KT 31/18 A3006 RMK A01 T03070177  RH  046%=      5-min Rain = 0
KBI1 041604Z 17008KT 31/18 A3006 RMK A01 T03090178  RH  045%=      5-min Rain = 0
KBI1 041605Z 17007KT 31/18 A3006 RMK A01 T03100177  RH  045%=      5-min Rain = 0
KBI1 041606Z 18007KT 31/18 A3006 RMK A01 T03100177  RH  045%=      5-min Rain = 0
KBI1 041607Z 18010KT 31/18 A3006 RMK A01 T03090177  RH  045%=      5-min Rain = 0
KBI1 041608Z 16009KT 31/17 A3006 RMK A01 T03100174  RH  044%=      5-min Rain = 0
KBI1 041609Z 15008KT 31/17 A3006 RMK A01 T03130170  RH  042%=      5-min Rain = 0
KBI1 041610Z 16008KT 31/17 A3006 RMK A01 T03120172  RH  043%=      5-min Rain = 0
KBI1 041611Z 15009KT 31/17 A3006 RMK A01 T03110170  RH  043%=      5-min Rain = 0
KBI1 041612Z 16007KT 31/17 A3006 RMK A01 T03090172  RH  044%=      5-min Rain = 0
KBI1 041613Z 17009KT 31/17 A3006 RMK A01 T03100167  RH  042%=      5-min Rain = 0
KBI1 041614Z 17008KT 31/17 A3006 RMK A01 T03120168  RH  042%=      5-min Rain = 0
KBI1 041615Z 17008KT 31/17 A3006 RMK A01 T03130173  RH  043%=      5-min Rain = 0
KBI1 041616Z 16008KT 31/17 A3006 RMK A01 T03140174  RH  043%=      5-min Rain = 0
KBI1 041617Z 16005KT 32/18 A3006 RMK A01 T03150175  RH  043%=      5-min Rain = 0
KBI1 041618Z 15005KT 32/18 A3006 RMK A01 T03160177  RH  043%=      5-min Rain = 0
KBI1 041619Z 14006KT 32/18 A3006 RMK A01 T03170177  RH  043%=      5-min Rain = 0
KBI1 041620Z 18006KT 32/18 A3006 RMK A01 T03160176  RH  043%=      5-min Rain = 0
KBI1 041621Z 17006KT 32/17 A3006 RMK A01 T03160173  RH  042%=      5-min Rain = 0
KBI1 041622Z 17010KT 32/17 A3006 RMK A01 T03170171  RH  042%=      5-min Rain = 0
KBI1 041623Z 17008KT 32/17 A3006 RMK A01 T03180166  RH  040%=      5-min Rain = 0
KBI1 041624Z 18006KT 32/17 A3006 RMK A01 T03170165  RH  040%=      5-min Rain = 0
KBI1 041625Z 15006KT 32/17 A3006 RMK A01 T03160166  RH  041%=      5-min Rain = 0
KBI1 041626Z 16007KT 32/16 A3006 RMK A01 T03170163  RH  039%=      5-min Rain = 0
KBI1 041627Z 15006KT 32/17 A3006 RMK A01 T03170169  RH  041%=      5-min Rain = 0
KBI1 041628Z 15005KT 32/17 A3006 RMK A01 T03160172  RH  042%=      5-min Rain = 0
KBI1 041629Z 17006KT 32/17 A3006 RMK A01 T03170173  RH  042%=      5-min Rain = 0
KBI1 041630Z 17008KT 32/17 A3006 RMK A01 T03200173  RH  041%=      5-min Rain = 0
KBI1 041631Z 17006KT 32/17 A3006 RMK A01 T03200172  RH  041%=      5-min Rain = 0
KBI1 041632Z 14005KT 32/17 A3006 RMK A01 T03200171  RH  041%=      5-min Rain = 0
KBI1 041633Z 18007KT 32/17 A3006 RMK A01 T03220172  RH  041%=      5-min Rain = 0
KBI1 041634Z 18006KT 33/17 A3006 RMK A01 T03250167  RH  039%=      5-min Rain = 0
KBI1 041635Z 15006KT 32/17 A3006 RMK A01 T03240170  RH  040%=      5-min Rain = 0
KBI1 041636Z 14006KT 33/17 A3006 RMK A01 T03250172  RH  040%=      5-min Rain = 0
KBI1 041637Z 12006KT 32/18 A3006 RMK A01 T03240175  RH  041%=      5-min Rain = 0
KBI1 041638Z 13005KT 32/17 A3006 RMK A01 T03230172  RH  041%=      5-min Rain = 0
KBI1 041639Z 14007KT 32/17 A3006 RMK A01 T03220168  RH  040%=      5-min Rain = 0
KBI1 041640Z 17006KT 32/17 A3006 RMK A01 T03230168  RH  040%=      5-min Rain = 0
KBI1 041641Z 18006KT 33/17 A3006 RMK A01 T03270169  RH  039%=      5-min Rain = 0
KBI1 041642Z 17006KT 33/17 A3006 RMK A01 T03270170  RH  039%=      5-min Rain = 0
KBI1 041643Z 17008KT 33/16 A3006 RMK A01 T03270164  RH  038%=      5-min Rain = 0
KBI1 041644Z 18006KT 33/17 A3006 RMK A01 T03270165  RH  038%=      5-min Rain = 0
KBI1 041645Z 14005KT 33/16 A3006 RMK A01 T03290164  RH  037%=      5-min Rain = 0
KBI1 041646Z 16007KT 33/16 A3006 RMK A01 T03280164  RH  038%=      5-min Rain = 0
KBI1 041647Z 13007KT 33/17 A3006 RMK A01 T03290165  RH  037%=      5-min Rain = 0
KBI1 041648Z 12005KT 33/16 A3006 RMK A01 T03280164  RH  037%=      5-min Rain = 0
KBI1 041649Z 19004KT 33/17 A3006 RMK A01 T03260165  RH  038%=      5-min Rain = 0
KBI1 041650Z 19006KT 33/16 A3006 RMK A01 T03280162  RH  037%=      5-min Rain = 0
KBI1 041651Z 17010KT 33/16 A3006 RMK A01 T03290163  RH  037%=      5-min Rain = 0
KBI1 041652Z 16009KT 33/16 A3006 RMK A01 T03280164  RH  037%=      5-min Rain = 0
KBI1 041653Z 16008KT 32/16 A3006 RMK A01 T03240164  RH  038%=      5-min Rain = 0
KBI1 041654Z 14005KT 32/16 A3006 RMK A01 T03240164  RH  038%=      5-min Rain = 0
KBI1 041655Z 15003KT 33/16 A3006 RMK A01 T03250164  RH  038%=      5-min Rain = 0
KBI1 041656Z 14006KT 33/16 A3006 RMK A01 T03260161  RH  037%=      5-min Rain = 0
KBI1 041657Z 14004KT 33/16 A3006 RMK A01 T03260155  RH  036%=      5-min Rain = 0
KBI1 041658Z 15005KT 33/16 A3006 RMK A01 T03260157  RH  036%=      5-min Rain = 0
KBI1 041659Z 18009KT 33/16 A3006 RMK A01 T03260155  RH  036%=      5-min Rain = 0
KBI1 041700Z 17007KT 33/15 A3006 RMK A01 T03270151  RH  035%=      5-min Rain = 0
KBI1 041701Z 19008KT 33/16 A3006 RMK A01 T03280157  RH  036%=      5-min Rain = 0
KBI1 041702Z 17007KT 33/16 A3006 RMK A01 T03280157  RH  036%=      5-min Rain = 0
KBI1 041703Z 12004KT 33/16 A3006 RMK A01 T03300159  RH  036%=      5-min Rain = 0
KBI1 041704Z 08006KT 33/16 A3006 RMK A01 T03320155  RH  034%=      5-min Rain = 0
KBI1 041705Z 10004KT 33/15 A3006 RMK A01 T03270154  RH  035%=      5-min Rain = 0
KBI1 041706Z 13004KT 33/16 A3006 RMK A01 T03260157  RH  036%=      5-min Rain = 0
KBI1 041707Z 13005KT 33/16 A3006 RMK A01 T03260157  RH  036%=      5-min Rain = 0
KBI1 041708Z 10007KT 33/16 A3006 RMK A01 T03280155  RH  035%=      5-min Rain = 0
KBI1 041709Z 12007KT 33/15 A3006 RMK A01 T03290153  RH  035%=      5-min Rain = 0
KBI1 041710Z 10006KT 33/15 A3006 RMK A01 T03280152  RH  035%=      5-min Rain = 0
KBI1 041711Z 11007KT 33/15 A3006 RMK A01 T03290153  RH  035%=      5-min Rain = 0
KBI1 041712Z 14008KT 33/15 A3006 RMK A01 T03300151  RH  034%=      5-min Rain = 0
KBI1 041713Z 14006KT 33/15 A3006 RMK A01 T03290152  RH  034%=      5-min Rain = 0
KBI1 041714Z 16006KT 33/15 A3006 RMK A01 T03310150  RH  034%=      5-min Rain = 0
KBI1 041715Z 16005KT 33/15 A3006 RMK A01 T03320151  RH  034%=      5-min Rain = 0
KBI1 041716Z 12004KT 33/15 A3006 RMK A01 T03320152  RH  034%=      5-min Rain = 0
KBI1 041717Z 12003KT 33/15 A3006 RMK A01 T03310154  RH  034%=      5-min Rain = 0
KBI1 041718Z 09001KT 33/15 A3006 RMK A01 T03280152  RH  035%=      5-min Rain = 0
KBI1 041719Z 15001KT 33/15 A3006 RMK A01 T03260154  RH  036%=      5-min Rain = 0
KBI1 041720Z 12006G11KT 33/15 A3006 RMK A01 T03260154  RH  036%=      5-min Rain = 0
KBI1 041721Z 14007G12KT 33/16 A3006 RMK A01 T03260156  RH  036%=      5-min Rain = 0
KBI1 041722Z 16007KT 33/16 A3006 RMK A01 T03300158  RH  036%=      5-min Rain = 0
KBI1 041723Z 18007KT 33/16 A3006 RMK A01 T03320155  RH  035%=      5-min Rain = 0
KBI1 041724Z 18005KT 33/15 A3006 RMK A01 T03310152  RH  034%=      5-min Rain = 0
KBI1 041725Z 19003KT 33/15 A3006 RMK A01 T03300152  RH  034%=      5-min Rain = 0
KBI1 041726Z 12004KT 33/16 A3006 RMK A01 T03300156  RH  035%=      5-min Rain = 0
KBI1 041727Z 10007G12KT 33/16 A3006 RMK A01 T03330158  RH  035%=      5-min Rain = 0
KBI1 041728Z 13011KT 33/15 A3006 RMK A01 T03340151  RH  033%=      5-min Rain = 0
KBI1 041729Z 12009KT 33/15 A3006 RMK A01 T03340146  RH  032%=      5-min Rain = 0
KBI1 041730Z 12006KT 33/15 A3006 RMK A01 T03330147  RH  033%=      5-min Rain = 0
KBI1 041731Z 17006KT 33/15 A3006 RMK A01 T03310149  RH  033%=      5-min Rain = 0
KBI1 041732Z 16007KT 33/15 A3006 RMK A01 T03310152  RH  034%=      5-min Rain = 0
KBI1 041733Z 15008KT 33/15 A3006 RMK A01 T03340153  RH  034%=      5-min Rain = 0
KBI1 041734Z 13008KT 34/15 A3006 RMK A01 T03350152  RH  033%=      5-min Rain = 0
KBI1 041735Z 10005KT 33/15 A3006 RMK A01 T03340147  RH  032%=      5-min Rain = 0
KBI1 041736Z 11004KT 34/15 A3006 RMK A01 T03350147  RH  032%=      5-min Rain = 0
KBI1 041737Z 08003KT 33/15 A3006 RMK A01 T03340149  RH  033%=      5-min Rain = 0
KBI1 041738Z 12003KT 34/15 A3006 RMK A01 T03360153  RH  033%=      5-min Rain = 0
KBI1 041739Z 09003KT 34/16 A3005 RMK A01 T03390155  RH  033%=      5-min Rain = 0
KBI1 041740Z 06002KT 34/16 A3005 RMK A01 T03360156  RH  034%=      5-min Rain = 0
KBI1 041741Z 12002KT 34/16 A3005 RMK A01 T03360156  RH  034%=      5-min Rain = 0
KBI1 041742Z 09002KT 34/16 A3005 RMK A01 T03350156  RH  034%=      5-min Rain = 0
KBI1 041743Z 08006G11KT 34/16 A3005 RMK A01 T03350156  RH  034%=      5-min Rain = 0
KBI1 041744Z 09009KT 34/15 A3005 RMK A01 T03370151  RH  033%=      5-min Rain = 0
KBI1 041745Z 12007KT 34/15 A3005 RMK A01 T03380149  RH  032%=      5-min Rain = 0
KBI1 041746Z 09006KT 34/15 A3005 RMK A01 T03380149  RH  032%=      5-min Rain = 0
KBI1 041747Z 10007KT 34/15 A3005 RMK A01 T03400150  RH  032%=      5-min Rain = 0
KBI1 041748Z 12008KT 34/15 A3005 RMK A01 T03420145  RH  031%=      5-min Rain = 0
KBI1 041749Z 10005KT 34/14 A3005 RMK A01 T03410143  RH  030%=      5-min Rain = 0
KBI1 041750Z 12007KT 34/15 A3005 RMK A01 T03410147  RH  031%=      5-min Rain = 0
KBI1 041751Z 14006G11KT 34/14 A3005 RMK A01 T03430144  RH  030%=      5-min Rain = 0
KBI1 041752Z 13003KT 34/14 A3005 RMK A01 T03420144  RH  030%=      5-min Rain = 0
KBI1 041753Z 12005KT 34/15 A3005 RMK A01 T03410147  RH  031%=      5-min Rain = 0
KBI1 041754Z 14008KT 34/15 A3005 RMK A01 T03430146  RH  031%=      5-min Rain = 0
KBI1 041755Z 14005KT 34/14 A3005 RMK A01 T03440143  RH  030%=      5-min Rain = 0
KBI1 041756Z 17002KT 34/15 A3005 RMK A01 T03440147  RH  031%=      5-min Rain = 0
KBI1 041757Z 16002KT 34/15 A3005 RMK A01 T03440148  RH  031%=      5-min Rain = 0
KBI1 041758Z 04004KT 34/15 A3005 RMK A01 T03430147  RH  031%=      5-min Rain = 0
KBI1 041759Z 01004KT 34/15 A3005 RMK A01 T03420146  RH  031%=      5-min Rain = 0
KBI1 041800Z 01004KT 34/15 A3005 RMK A01 T03410148  RH  031%=      5-min Rain = 0
KBI1 041801Z 01003KT 34/15 A3005 RMK A01 T03370148  RH  032%=      5-min Rain = 0
KBI1 041802Z 04003KT 34/15 A3005 RMK A01 T03350148  RH  033%=      5-min Rain = 0
KBI1 041803Z 14003KT 34/15 A3005 RMK A01 T03350151  RH  033%=      5-min Rain = 0
KBI1 041804Z 16006KT 34/14 A3005 RMK A01 T03400141  RH  030%=      5-min Rain = 0
KBI1 041805Z 17008KT 34/14 A3005 RMK A01 T03430141  RH  030%=      5-min Rain = 0
KBI1 041806Z 17006KT 35/15 A3005 RMK A01 T03470145  RH  030%=      5-min Rain = 0
KBI1 041807Z 18003KT 35/14 A3005 RMK A01 T03490144  RH  029%=      5-min Rain = 0
KBI1 041808Z 15003KT 35/14 A3005 RMK A01 T03470143  RH  029%=      5-min Rain = 0
KBI1 041809Z 11005KT 35/15 A3005 RMK A01 T03470145  RH  030%=      5-min Rain = 0
KBI1 041810Z 11003KT 35/14 A3005 RMK A01 T03480142  RH  029%=      5-min Rain = 0
KBI1 041811Z 10004KT 34/15 A3005 RMK A01 T03440145  RH  030%=      5-min Rain = 0
KBI1 041812Z 14001KT 34/15 A3005 RMK A01 T03430146  RH  031%=      5-min Rain = 0
KBI1 041813Z 15003KT 34/15 A3005 RMK A01 T03430145  RH  030%=      5-min Rain = 0
KBI1 041814Z 14005KT 34/14 A3005 RMK A01 T03430144  RH  030%=      5-min Rain = 0
KBI1 041815Z 11007G14KT 35/14 A3005 RMK A01 T03450141  RH  029%=      5-min Rain = 0
KBI1 041816Z 12010KT 35/14 A3005 RMK A01 T03460135  RH  028%=      5-min Rain = 0
KBI1 041817Z 12009KT 35/13 A3005 RMK A01 T03460131  RH  027%=      5-min Rain = 0
KBI1 041818Z 12009KT 35/13 A3005 RMK A01 T03460129  RH  027%=      5-min Rain = 0
KBI1 041819Z 11011KT 35/13 A3005 RMK A01 T03460130  RH  027%=      5-min Rain = 0
KBI1 041820Z 11008KT 35/13 A3005 RMK A01 T03450132  RH  028%=      5-min Rain = 0
KBI1 041821Z 12009KT 34/13 A3005 RMK A01 T03440133  RH  028%=      5-min Rain = 0
KBI1 041822Z 11006KT 34/13 A3004 RMK A01 T03440133  RH  028%=      5-min Rain = 0
KBI1 041823Z 10004KT 34/13 A3004 RMK A01 T03410131  RH  028%=      5-min Rain = 0
KBI1 041824Z 13005KT 34/13 A3004 RMK A01 T03400132  RH  029%=      5-min Rain = 0
KBI1 041825Z 10004KT 34/14 A3004 RMK A01 T03390135  RH  029%=      5-min Rain = 0
KBI1 041826Z 11008KT 34/14 A3004 RMK A01 T03400137  RH  029%=      5-min Rain = 0
KBI1 041827Z 10006KT 34/14 A3004 RMK A01 T03410137  RH  029%=      5-min Rain = 0
KBI1 041828Z 11003KT 34/14 A3004 RMK A01 T03420139  RH  029%=      5-min Rain = 0
KBI1 041829Z 09004KT 34/14 A3004 RMK A01 T03440137  RH  029%=      5-min Rain = 0
KBI1 041830Z 10003KT 34/14 A3004 RMK A01 T03440137  RH  029%=      5-min Rain = 0
KBI1 041831Z 12003KT 34/14 A3004 RMK A01 T03440137  RH  029%=      5-min Rain = 0
KBI1 041832Z 15003KT 34/14 A3004 RMK A01 T03440137  RH  029%=      5-min Rain = 0
KBI1 041833Z 15003KT 34/14 A3004 RMK A01 T03430135  RH  029%=      5-min Rain = 0
KBI1 041834Z 14002KT 34/14 A3004 RMK A01 T03430136  RH  029%=      5-min Rain = 0
KBI1 041835Z 10004KT 35/14 A3004 RMK A01 T03450139  RH  029%=      5-min Rain = 0
KBI1 041836Z 10009KT 35/14 A3004 RMK A01 T03460140  RH  029%=      5-min Rain = 0
KBI1 041837Z 10008KT 35/14 A3004 RMK A01 T03470137  RH  028%=      5-min Rain = 0
KBI1 041838Z 13008KT 34/14 A3003 RMK A01 T03430138  RH  029%=      5-min Rain = 0
KBI1 041839Z 15004KT 35/14 A3003 RMK A01 T03450140  RH  029%=      5-min Rain = 0
KBI1 041840Z 15005KT 35/14 A3003 RMK A01 T03510140  RH  028%=      5-min Rain = 0
KBI1 041841Z 15005KT 35/14 A3003 RMK A01 T03520136  RH  027%=      5-min Rain = 0
KBI1 041842Z 12005KT 35/14 A3003 RMK A01 T03510136  RH  027%=      5-min Rain = 0
KBI1 041843Z 12004KT 35/14 A3003 RMK A01 T03530139  RH  028%=      5-min Rain = 0
KBI1 041844Z 16005KT 36/14 A3003 RMK A01 T03560139  RH  027%=      5-min Rain = 0
KBI1 041845Z 15004KT 36/14 A3003 RMK A01 T03550136  RH  027%=      5-min Rain = 0
KBI1 041846Z 15002KT 35/13 A3003 RMK A01 T03500134  RH  027%=      5-min Rain = 0
KBI1 041847Z 16005KT 35/14 A3003 RMK A01 T03470135  RH  028%=      5-min Rain = 0
KBI1 041848Z 15006KT 35/14 A3003 RMK A01 T03490136  RH  028%=      5-min Rain = 0
KBI1 041849Z 15006KT 35/14 A3003 RMK A01 T03520137  RH  028%=      5-min Rain = 0
KBI1 041850Z 15007KT 35/14 A3003 RMK A01 T03530137  RH  027%=      5-min Rain = 0
KBI1 041851Z 13005KT 36/14 A3003 RMK A01 T03560138  RH  027%=      5-min Rain = 0
KBI1 041852Z 11009KT 36/14 A3003 RMK A01 T03570136  RH  027%=      5-min Rain = 0
KBI1 041853Z 12008KT 36/13 A3003 RMK A01 T03550134  RH  027%=      5-min Rain = 0
KBI1 041854Z 16008KT 35/13 A3003 RMK A01 T03530133  RH  027%=      5-min Rain = 0
KBI1 041855Z 17007KT 35/13 A3003 RMK A01 T03510131  RH  027%=      5-min Rain = 0
KBI1 041856Z 16009KT 35/13 A3003 RMK A01 T03500129  RH  026%=      5-min Rain = 0
KBI1 041857Z 16007KT 35/13 A3003 RMK A01 T03500128  RH  026%=      5-min Rain = 0
KBI1 041858Z 15006KT 35/13 A3003 RMK A01 T03500126  RH  026%=      5-min Rain = 0
KBI1 041859Z 15005KT 35/13 A3003 RMK A01 T03500126  RH  026%=      5-min Rain = 0
KBI1 041900Z 14007KT 35/13 A3003 RMK A01 T03520127  RH  026%=      5-min Rain = 0
KBI1 041901Z 15005KT 35/13 A3003 RMK A01 T03500126  RH  026%=      5-min Rain = 0
KBI1 041902Z 15005G11KT 35/13 A3003 RMK A01 T03490130  RH  027%=      5-min Rain = 0
KBI1 041903Z 14011KT 35/13 A3003 RMK A01 T03500131  RH  027%=      5-min Rain = 0
KBI1 041904Z 15008KT 35/13 A3003 RMK A01 T03510131  RH  027%=      5-min Rain = 0
KBI1 041905Z 17008KT 35/13 A3003 RMK A01 T03500131  RH  027%=      5-min Rain = 0
KBI1 041906Z 17003KT 35/13 A3003 RMK A01 T03500129  RH  027%=      5-min Rain = 0
KBI1 041907Z 13003KT 35/13 A3003 RMK A01 T03480129  RH  027%=      5-min Rain = 0
KBI1 041908Z 15003KT 35/13 A3003 RMK A01 T03480130  RH  027%=      5-min Rain = 0
KBI1 041909Z 14004KT 35/13 A3003 RMK A01 T03500132  RH  027%=      5-min Rain = 0
KBI1 041910Z 11004KT 35/13 A3003 RMK A01 T03540132  RH  026%=      5-min Rain = 0
KBI1 041911Z 13008KT 36/13 A3003 RMK A01 T03550131  RH  026%=      5-min Rain = 0
KBI1 041912Z 10004KT 35/13 A3003 RMK A01 T03530132  RH  026%=      5-min Rain = 0
KBI1 041913Z 04002KT 35/13 A3003 RMK A01 T03520130  RH  026%=      5-min Rain = 0
KBI1 041914Z 02002KT 35/13 A3003 RMK A01 T03510131  RH  027%=      5-min Rain = 0
KBI1 041915Z 14006KT 35/13 A3003 RMK A01 T03500130  RH  027%=      5-min Rain = 0
KBI1 041916Z 14008KT 35/13 A3003 RMK A01 T03500132  RH  027%=      5-min Rain = 0
KBI1 041917Z 12008KT 35/13 A3003 RMK A01 T03490132  RH  027%=      5-min Rain = 0
KBI1 041918Z 14007KT 35/13 A3003 RMK A01 T03490134  RH  027%=      5-min Rain = 0
KBI1 041919Z 15009KT 35/13 A3002 RMK A01 T03510134  RH  027%=      5-min Rain = 0
KBI1 041920Z 16008KT 35/13 A3003 RMK A01 T03510133  RH  027%=      5-min Rain = 0
KBI1 041921Z 15004G9KT 35/13 A3003 RMK A01 T03500132  RH  027%=      5-min Rain = 0
KBI1 041922Z 07002KT 35/13 A3002 RMK A01 T03490133  RH  027%=      5-min Rain = 0
KBI1 041923Z 01003KT 35/13 A3002 RMK A01 T03490132  RH  027%=      5-min Rain = 0
KBI1 041924Z 34001KT 35/13 A3002 RMK A01 T03500134  RH  027%=      5-min Rain = 0
KBI1 041925Z 19003KT 35/13 A3002 RMK A01 T03520134  RH  027%=      5-min Rain = 0
KBI1 041926Z 11007KT 35/13 A3002 RMK A01 T03530132  RH  026%=      5-min Rain = 0
KBI1 041927Z 08003KT 35/13 A3002 RMK A01 T03520129  RH  026%=      5-min Rain = 0
KBI1 041928Z 05002KT 35/13 A3002 RMK A01 T03510130  RH  027%=      5-min Rain = 0
KBI1 041929Z 05000KT 35/13 A3002 RMK A01 T03510132  RH  027%=      5-min Rain = 0
KBI1 041930Z 08003KT 35/13 A3002 RMK A01 T03540132  RH  026%=      5-min Rain = 0
KBI1 041931Z 05004KT 35/13 A3002 RMK A01 T03540130  RH  026%=      5-min Rain = 0
KBI1 041932Z 04003KT 35/13 A3002 RMK A01 T03500130  RH  027%=      5-min Rain = 0
KBI1 041933Z 11006KT 35/13 A3002 RMK A01 T03510127  RH  026%=      5-min Rain = 0
KBI1 041934Z 11009KT 35/13 A3002 RMK A01 T03540128  RH  026%=      5-min Rain = 0
KBI1 041935Z 13006KT 35/13 A3002 RMK A01 T03540128  RH  026%=      5-min Rain = 0
KBI1 041936Z 12005KT 35/13 A3002 RMK A01 T03520129  RH  026%=      5-min Rain = 0
KBI1 041937Z 10007KT 35/13 A3002 RMK A01 T03530132  RH  027%=      5-min Rain = 0
KBI1 041938Z 11008KT 36/13 A3002 RMK A01 T03550131  RH  026%=      5-min Rain = 0
KBI1 041939Z 09008KT 36/13 A3002 RMK A01 T03570130  RH  026%=      5-min Rain = 0
KBI1 041940Z 12008KT 36/13 A3002 RMK A01 T03560130  RH  026%=      5-min Rain = 0
KBI1 041941Z 15005KT 35/13 A3002 RMK A01 T03540128  RH  026%=      5-min Rain = 0
KBI1 041942Z 17008KT 35/13 A3001 RMK A01 T03520125  RH  025%=      5-min Rain = 0
KBI1 041943Z 14005KT 35/13 A3001 RMK A01 T03500126  RH  026%=      5-min Rain = 0
KBI1 041944Z 09007KT 35/13 A3001 RMK A01 T03510126  RH  026%=      5-min Rain = 0
KBI1 041945Z 09008KT 35/13 A3001 RMK A01 T03540125  RH  025%=      5-min Rain = 0
KBI1 041946Z 10009KT 36/12 A3001 RMK A01 T03560120  RH  024%=      5-min Rain = 0
KBI1 041947Z 11010KT 36/12 A3001 RMK A01 T03570121  RH  024%=      5-min Rain = 0
KBI1 041948Z 08007KT 35/12 A3001 RMK A01 T03540121  RH  025%=      5-min Rain = 0
KBI1 041949Z 07008KT 36/12 A3001 RMK A01 T03550123  RH  025%=      5-min Rain = 0
KBI1 041950Z 07009KT 36/12 A3001 RMK A01 T03570122  RH  024%=      5-min Rain = 0
KBI1 041951Z 07007KT 36/12 A3001 RMK A01 T03550121  RH  024%=      5-min Rain = 0
KBI1 041952Z 05005KT 35/12 A3001 RMK A01 T03510122  RH  025%=      5-min Rain = 0
KBI1 041953Z 05004KT 35/12 A3001 RMK A01 T03480121  RH  025%=      5-min Rain = 0
KBI1 041954Z 08007KT 35/13 A3001 RMK A01 T03500125  RH  026%=      5-min Rain = 0
KBI1 041955Z 08007KT 35/13 A3001 RMK A01 T03520125  RH  025%=      5-min Rain = 0
KBI1 041956Z 09003G8KT 35/12 A3001 RMK A01 T03520123  RH  025%=      5-min Rain = 0
KBI1 041957Z 06003KT 35/13 A3001 RMK A01 T03520127  RH  026%=      5-min Rain = 0
KBI1 041958Z 04003KT 36/13 A3001 RMK A01 T03560127  RH  025%=      5-min Rain = 0
KBI1 041959Z 03002KT 36/13 A3001 RMK A01 T03580127  RH  025%=      5-min Rain = 0
KBI1 042000Z 04002KT 36/13 A3001 RMK A01 T03620131  RH  025%=      5-min Rain = 0
KBI1 042001Z 08006KT 37/13 A3001 RMK A01 T03650126  RH  024%=      5-min Rain = 0
KBI1 042002Z 09012KT 36/13 A3001 RMK A01 T03610127  RH  025%=      5-min Rain = 0
KBI1 042003Z 08009KT 36/13 A3001 RMK A01 T03570127  RH  025%=      5-min Rain = 0
KBI1 042004Z 08010KT 35/13 A3001 RMK A01 T03530127  RH  026%=      5-min Rain = 0
KBI1 042005Z 08009KT 35/13 A3001 RMK A01 T03500126  RH  026%=      5-min Rain = 0
KBI1 042006Z 07010KT 35/13 A3001 RMK A01 T03510128  RH  026%=      5-min Rain = 0
KBI1 042007Z 08008KT 35/13 A3001 RMK A01 T03540126  RH  025%=      5-min Rain = 0
KBI1 042008Z 10007KT 36/13 A3001 RMK A01 T03550126  RH  025%=      5-min Rain = 0
KBI1 042009Z 08006KT 35/13 A3001 RMK A01 T03540126  RH  025%=      5-min Rain = 0
KBI1 042010Z 10005KT 35/13 A30 RMK A01 T03540126  RH  025%=      5-min Rain = 0
KBI1 042011Z 12005KT 35/13 A30 RMK A01 T03530128  RH  026%=      5-min Rain = 0
KBI1 042012Z 08006KT 36/13 A30 RMK A01 T03550127  RH  025%=      5-min Rain = 0
KBI1 042013Z 08006KT 36/12 A30 RMK A01 T03570124  RH  025%=      5-min Rain = 0
KBI1 042014Z 08009G14KT 36/13 A30 RMK A01 T03580127  RH  025%=      5-min Rain = 0
KBI1 042015Z 08012KT 36/13 A30 RMK A01 T03590127  RH  025%=      5-min Rain = 0
KBI1 042016Z 08008KT 36/13 A30 RMK A01 T03560127  RH  025%=      5-min Rain = 0
KBI1 042017Z 08007KT 36/13 A30 RMK A01 T03550127  RH  025%=      5-min Rain = 0
KBI1 042018Z 10005KT 36/13 A30 RMK A01 T03550129  RH  026%=      5-min Rain = 0
KBI1 042019Z 09006KT 36/13 A30 RMK A01 T03600130  RH  025%=      5-min Rain = 0
KBI1 042020Z 10008KT 36/13 A30 RMK A01 T03640126  RH  024%=      5-min Rain = 0
KBI1 042021Z 10008KT 36/12 A30 RMK A01 T03620122  RH  024%=      5-min Rain = 0
KBI1 042022Z 11007KT 36/12 A30 RMK A01 T03610123  RH  024%=      5-min Rain = 0
KBI1 042023Z 11007KT 36/12 A30 RMK A01 T03600123  RH  024%=      5-min Rain = 0
KBI1 042024Z 12002KT 36/13 A30 RMK A01 T03580125  RH  025%=      5-min Rain = 0
KBI1 042025Z 16001KT 36/13 A30 RMK A01 T03560126  RH  025%=      5-min Rain = 0
KBI1 042026Z 00000KT 36/13 A30 RMK A01 T03560126  RH  025%=      5-min Rain = 0
KBI1 042027Z 14001KT 36/13 A30 RMK A01 T03590130  RH  025%=      5-min Rain = 0
KBI1 042028Z 11005KT 36/13 A30 RMK A01 T03610127  RH  025%=      5-min Rain = 0
KBI1 042029Z 10007G14KT 36/13 A30 RMK A01 T03590130  RH  025%=      5-min Rain = 0
KBI1 042030Z 12010KT 36/13 A30 RMK A01 T03590130  RH  025%=      5-min Rain = 0
KBI1 042031Z 13007KT 36/13 A30 RMK A01 T03600128  RH  025%=      5-min Rain = 0
KBI1 042032Z 12007KT 36/13 A30 RMK A01 T03570131  RH  026%=      5-min Rain = 0
KBI1 042033Z 13010KT 36/13 A30 RMK A01 T03580131  RH  026%=      5-min Rain = 0
KBI1 042034Z 11007KT 36/13 A30 RMK A01 T03590131  RH  026%=      5-min Rain = 0
KBI1 042035Z 11005KT 36/13 A30 RMK A01 T03600132  RH  026%=      5-min Rain = 0
KBI1 042036Z 14004KT 36/14 A30 RMK A01 T03640135  RH  025%=      5-min Rain = 0
KBI1 042037Z 12004KT 37/13 A30 RMK A01 T03680133  RH  025%=      5-min Rain = 0
KBI1 042038Z 10006KT 37/13 A30 RMK A01 T03690134  RH  025%=      5-min Rain = 0
KBI1 042039Z 06009KT 37/13 A30 RMK A01 T03670133  RH  025%=      5-min Rain = 0
KBI1 042040Z 06008KT 37/13 A30 RMK A01 T03660131  RH  024%=      5-min Rain = 0
KBI1 042041Z 08008KT 37/13 A30 RMK A01 T03660132  RH  025%=      5-min Rain = 0
KBI1 042042Z 10008KT 37/13 A30 RMK A01 T03670128  RH  024%=      5-min Rain = 0
KBI1 042043Z 07006KT 36/13 A30 RMK A01 T03620125  RH  024%=      5-min Rain = 0
KBI1 042044Z 08009KT 36/13 A30 RMK A01 T03590125  RH  024%=      5-min Rain = 0
KBI1 042045Z 09005KT 35/12 A30 RMK A01 T03540122  RH  025%=      5-min Rain = 0
KBI1 042046Z 07007KT 35/12 A30 RMK A01 T03520122  RH  025%=      5-min Rain = 0
KBI1 042047Z 05008KT 35/12 A2999 RMK A01 T03520121  RH  025%=      5-min Rain = 0
KBI1 042048Z 05010KT 35/12 A2999 RMK A01 T03510123  RH  025%=      5-min Rain = 0
KBI1 042049Z 06010KT 35/12 A2999 RMK A01 T03500124  RH  025%=      5-min Rain = 0
KBI1 042050Z 10010KT 35/13 A2999 RMK A01 T03530126  RH  025%=      5-min Rain = 0
KBI1 042051Z 10010KT 35/13 A2999 RMK A01 T03540125  RH  025%=      5-min Rain = 0
KBI1 042052Z 11010KT 35/13 A2999 RMK A01 T03540127  RH  026%=      5-min Rain = 0
KBI1 042053Z 11009KT 35/13 A30 RMK A01 T03530127  RH  026%=      5-min Rain = 0
KBI1 042054Z 12006KT 35/13 A2999 RMK A01 T03510128  RH  026%=      5-min Rain = 0
KBI1 042055Z 13008KT 35/13 A2999 RMK A01 T03500130  RH  027%=      5-min Rain = 0
KBI1 042056Z 13008KT 35/13 A2999 RMK A01 T03530127  RH  026%=      5-min Rain = 0
KBI1 042057Z 12005KT 36/13 A2999 RMK A01 T03550127  RH  025%=      5-min Rain = 0
KBI1 042058Z 10006KT 36/13 A2999 RMK A01 T03570126  RH  025%=      5-min Rain = 0
KBI1 042059Z 11009KT 36/13 A2999 RMK A01 T03570126  RH  025%=      5-min Rain = 0
KBI1 042100Z 10007KT 36/12 A2999 RMK A01 T03570124  RH  025%=      5-min Rain = 0
KBI1 042101Z 12005KT 36/13 A2999 RMK A01 T03580126  RH  025%=      5-min Rain = 0
KBI1 042102Z 13005KT 36/12 A2999 RMK A01 T03600123  RH  024%=      5-min Rain = 0
KBI1 042103Z 12004KT 36/12 A2999 RMK A01 T03600122  RH  024%=      5-min Rain = 0
KBI1 042104Z 14005KT 36/12 A2999 RMK A01 T03580123  RH  024%=      5-min Rain = 0
KBI1 042105Z 13005KT 36/12 A2999 RMK A01 T03580121  RH  024%=      5-min Rain = 0
KBI1 042106Z 11005KT 36/12 A2999 RMK A01 T03580119  RH  024%=      5-min Rain = 0
KBI1 042107Z 06008KT 36/12 A2999 RMK A01 T03600123  RH  024%=      5-min Rain = 0
KBI1 042108Z 10008KT 37/12 A2999 RMK A01 T03660123  RH  023%=      5-min Rain = 0
KBI1 042109Z 07006KT 37/12 A2999 RMK A01 T03670123  RH  023%=      5-min Rain = 0
KBI1 042110Z 07006KT 37/13 A2999 RMK A01 T03670125  RH  023%=      5-min Rain = 0
KBI1 042111Z 08008KT 37/12 A2998 RMK A01 T03700122  RH  023%=      5-min Rain = 0
KBI1 042112Z 10012KT 37/13 A2998 RMK A01 T03700129  RH  024%=      5-min Rain = 0
KBI1 042113Z 11011KT 37/13 A2999 RMK A01 T03670129  RH  024%=      5-min Rain = 0
KBI1 042114Z 12010KT 36/13 A2999 RMK A01 T03620128  RH  025%=      5-min Rain = 0
KBI1 042115Z 15007G13KT 36/13 A2998 RMK A01 T03580128  RH  025%=      5-min Rain = 0
KBI1 042116Z 14006KT 36/13 A2998 RMK A01 T03570129  RH  025%=      5-min Rain = 0
KBI1 042117Z 14006KT 36/13 A2998 RMK A01 T03590130  RH  025%=      5-min Rain = 0
KBI1 042118Z 13007KT 36/13 A2998 RMK A01 T03630131  RH  025%=      5-min Rain = 0
KBI1 042119Z 12007KT 37/13 A2998 RMK A01 T03660129  RH  024%=      5-min Rain = 0
KBI1 042120Z 13005KT 36/13 A2998 RMK A01 T03640128  RH  024%=      5-min Rain = 0
KBI1 042121Z 11005KT 36/13 A2998 RMK A01 T03630129  RH  025%=      5-min Rain = 0
KBI1 042122Z 11008KT 36/13 A2998 RMK A01 T03630128  RH  024%=      5-min Rain = 0
KBI1 042123Z 10008KT 36/13 A2998 RMK A01 T03620125  RH  024%=      5-min Rain = 0
KBI1 042124Z 10005KT 36/12 A2998 RMK A01 T03580122  RH  024%=      5-min Rain = 0
KBI1 042125Z 11003KT 36/12 A2998 RMK A01 T03560124  RH  025%=      5-min Rain = 0
KBI1 042126Z 15007KT 36/13 A2998 RMK A01 T03580128  RH  025%=      5-min Rain = 0
KBI1 042127Z 16007KT 36/13 A2998 RMK A01 T03610129  RH  025%=      5-min Rain = 0
KBI1 042128Z 16011KT 36/13 A2998 RMK A01 T03620128  RH  025%=      5-min Rain = 0
KBI1 042129Z 14008KT 36/13 A2998 RMK A01 T03620127  RH  025%=      5-min Rain = 0
KBI1 042130Z 12008KT 36/13 A2998 RMK A01 T03630130  RH  025%=      5-min Rain = 0
KBI1 042131Z 11007KT 36/13 A2998 RMK A01 T03620125  RH  024%=      5-min Rain = 0
KBI1 042132Z 08008KT 36/13 A2998 RMK A01 T03600125  RH  024%=      5-min Rain = 0
KBI1 042133Z 09005KT 36/12 A2998 RMK A01 T03590123  RH  024%=      5-min Rain = 0
KBI1 042134Z 09004KT 36/12 A2998 RMK A01 T03570124  RH  025%=      5-min Rain = 0
KBI1 042135Z 14004KT 36/13 A2998 RMK A01 T03560125  RH  025%=      5-min Rain = 0
KBI1 042136Z 10005KT 36/13 A2998 RMK A01 T03570127  RH  025%=      5-min Rain = 0
KBI1 042137Z 10007G13KT 36/13 A2997 RMK A01 T03600126  RH  025%=      5-min Rain = 0
KBI1 042138Z 10008KT 36/13 A2997 RMK A01 T03610125  RH  024%=      5-min Rain = 0
KBI1 042139Z 10008KT 36/12 A2998 RMK A01 T03640123  RH  024%=      5-min Rain = 0
KBI1 042140Z 11009KT 36/12 A2998 RMK A01 T03640119  RH  023%=      5-min Rain = 0
KBI1 042141Z 09008KT 36/12 A2998 RMK A01 T03620118  RH  023%=      5-min Rain = 0
KBI1 042142Z 08006KT 36/12 A2997 RMK A01 T03610122  RH  024%=      5-min Rain = 0
KBI1 042143Z 07006KT 36/12 A2997 RMK A01 T03610124  RH  024%=      5-min Rain = 0
KBI1 042144Z 08005KT 36/12 A2997 RMK A01 T03600124  RH  024%=      5-min Rain = 0
KBI1 042145Z 06005KT 36/12 A2997 RMK A01 T03600120  RH  024%=      5-min Rain = 0
KBI1 042146Z 09007KT 36/12 A2997 RMK A01 T03590122  RH  024%=      5-min Rain = 0
KBI1 042147Z 11004KT 36/12 A2997 RMK A01 T03600123  RH  024%=      5-min Rain = 0
KBI1 042148Z 12003KT 36/12 A2997 RMK A01 T03610123  RH  024%=      5-min Rain = 0
KBI1 042149Z 10007KT 36/12 A2997 RMK A01 T03630122  RH  024%=      5-min Rain = 0
KBI1 042150Z 09008KT 37/12 A2997 RMK A01 T03660116  RH  022%=      5-min Rain = 0
KBI1 042151Z 09008KT 36/11 A2997 RMK A01 T03640113  RH  022%=      5-min Rain = 0
KBI1 042152Z 11008KT 36/11 A2997 RMK A01 T03610114  RH  023%=      5-min Rain = 0
KBI1 042153Z 13008KT 36/12 A2997 RMK A01 T03630115  RH  022%=      5-min Rain = 0
KBI1 042154Z 14008KT 36/12 A2997 RMK A01 T03630120  RH  023%=      5-min Rain = 0
KBI1 042155Z 13009KT 36/12 A2997 RMK A01 T03620121  RH  024%=      5-min Rain = 0
KBI1 042156Z 14007KT 36/12 A2997 RMK A01 T03610119  RH  023%=      5-min Rain = 0
KBI1 042157Z 13007KT 36/12 A2997 RMK A01 T03600120  RH  023%=      5-min Rain = 0
KBI1 042158Z 10008KT 36/12 A2997 RMK A01 T03600119  RH  023%=      5-min Rain = 0
KBI1 042159Z 09007KT 36/12 A2997 RMK A01 T03600117  RH  023%=      5-min Rain = 0
KBI1 042200Z 07005KT 36/12 A2996 RMK A01 T03570117  RH  024%=      5-min Rain = 0
KBI1 042201Z 10005G10KT 36/12 A2996 RMK A01 T03560121  RH  024%=      5-min Rain = 0
KBI1 042202Z 10007KT 36/12 A2996 RMK A01 T03600118  RH  023%=      5-min Rain = 0
KBI1 042203Z 10002KT 36/12 A2996 RMK A01 T03600115  RH  023%=      5-min Rain = 0
KBI1 042204Z 06004KT 36/11 A2996 RMK A01 T03600114  RH  023%=      5-min Rain = 0
KBI1 042205Z 08005G10KT 36/12 A2996 RMK A01 T03590117  RH  023%=      5-min Rain = 0
KBI1 042206Z 09009KT 36/12 A2996 RMK A01 T03630117  RH  023%=      5-min Rain = 0
KBI1 042207Z 09010KT 37/11 A2996 RMK A01 T03660113  RH  022%=      5-min Rain = 0
KBI1 042208Z 09009KT 36/11 A2996 RMK A01 T03630113  RH  022%=      5-min Rain = 0
KBI1 042209Z 10009KT 36/11 A2996 RMK A01 T03630113  RH  022%=      5-min Rain = 0
KBI1 042210Z 10008KT 36/11 A2996 RMK A01 T03640111  RH  022%=      5-min Rain = 0
KBI1 042211Z 10009KT 36/11 A2996 RMK A01 T03630111  RH  022%=      5-min Rain = 0
KBI1 042212Z 12005KT 36/11 A2995 RMK A01 T03600109  RH  022%=      5-min Rain = 0
KBI1 042213Z 09005KT 36/11 A2995 RMK A01 T03590111  RH  022%=      5-min Rain = 0
KBI1 042214Z 10008KT 36/11 A2995 RMK A01 T03610110  RH  022%=      5-min Rain = 0
KBI1 042215Z 10005KT 36/11 A2995 RMK A01 T03610109  RH  022%=      5-min Rain = 0
KBI1 042216Z 12005KT 36/11 A2995 RMK A01 T03600110  RH  022%=      5-min Rain = 0
KBI1 042217Z 11009KT 36/11 A2995 RMK A01 T03610109  RH  022%=      5-min Rain = 0
KBI1 042218Z 13009KT 36/11 A2995 RMK A01 T03630107  RH  021%=      5-min Rain = 0
KBI1 042219Z 14007KT 36/11 A2995 RMK A01 T03630106  RH  021%=      5-min Rain = 0
KBI1 042220Z 13004KT 36/11 A2995 RMK A01 T03630106  RH  021%=      5-min Rain = 0
KBI1 042221Z 12004KT 36/11 A2995 RMK A01 T03640106  RH  021%=      5-min Rain = 0
KBI1 042222Z 08004G9KT 37/11 A2995 RMK A01 T03650108  RH  021%=      5-min Rain = 0
KBI1 042223Z 08009KT 37/10 A2995 RMK A01 T03670101  RH  020%=      5-min Rain = 0
KBI1 042224Z 08009KT 37/10 A2995 RMK A01 T03660104  RH  021%=      5-min Rain = 0
KBI1 042225Z 09006KT 37/10 A2995 RMK A01 T03660104  RH  021%=      5-min Rain = 0
KBI1 042226Z 10004KT 36/10 A2995 RMK A01 T03640100  RH  020%=      5-min Rain = 0
KBI1 042227Z 10005KT 36/10 A2995 RMK A01 T03630102  RH  021%=      5-min Rain = 0
KBI1 042228Z 09009KT 36/10 A2995 RMK A01 T03630102  RH  021%=      5-min Rain = 0
KBI1 042229Z 08007KT 36/10 A2995 RMK A01 T03630102  RH  021%=      5-min Rain = 0
KBI1 042230Z 07006KT 36/10 A2995 RMK A01 T03620103  RH  021%=      5-min Rain = 0
KBI1 042231Z 10006KT 36/11 A2995 RMK A01 T03610105  RH  021%=      5-min Rain = 0
KBI1 042232Z 10007KT 36/11 A2995 RMK A01 T03610110  RH  022%=      5-min Rain = 0
KBI1 042233Z 10009KT 36/11 A2995 RMK A01 T03610112  RH  022%=      5-min Rain = 0
KBI1 042234Z 11008G13KT 36/12 A2995 RMK A01 T03600116  RH  023%=      5-min Rain = 0
KBI1 042235Z 10009KT 36/11 A2995 RMK A01 T03600111  RH  022%=      5-min Rain = 0
KBI1 042236Z 09006KT 36/11 A2995 RMK A01 T03600110  RH  022%=      5-min Rain = 0
KBI1 042237Z 09004KT 36/11 A2995 RMK A01 T03590109  RH  022%=      5-min Rain = 0
KBI1 042238Z 11003KT 36/11 A2995 RMK A01 T03590110  RH  022%=      5-min Rain = 0
KBI1 042239Z 10006KT 36/11 A2995 RMK A01 T03600112  RH  022%=      5-min Rain = 0
KBI1 042240Z 11005KT 36/11 A2995 RMK A01 T03610113  RH  022%=      5-min Rain = 0
KBI1 042241Z 11005KT 36/11 A2995 RMK A01 T03610114  RH  022%=      5-min Rain = 0
KBI1 042242Z 11005KT 36/11 A2994 RMK A01 T03620111  RH  022%=      5-min Rain = 0
KBI1 042243Z 16003KT 36/11 A2994 RMK A01 T03610112  RH  022%=      5-min Rain = 0
KBI1 042244Z 16002KT 36/11 A2994 RMK A01 T03590111  RH  022%=      5-min Rain = 0
KBI1 042245Z 18003KT 36/11 A2994 RMK A01 T03600112  RH  022%=      5-min Rain = 0
KBI1 042246Z 16003KT 36/11 A2994 RMK A01 T03610112  RH  022%=      5-min Rain = 0
KBI1 042247Z 14007KT 36/12 A2994 RMK A01 T03630115  RH  022%=      5-min Rain = 0
KBI1 042248Z 16010KT 37/12 A2994 RMK A01 T03660115  RH  022%=      5-min Rain = 0
KBI1 042249Z 18008KT 36/11 A2994 RMK A01 T03640113  RH  022%=      5-min Rain = 0
KBI1 042250Z 16008KT 36/11 A2994 RMK A01 T03610113  RH  022%=      5-min Rain = 0
KBI1 042251Z 16006KT 36/11 A2994 RMK A01 T03600113  RH  022%=      5-min Rain = 0
KBI1 042252Z 17004KT 36/11 A2994 RMK A01 T03600112  RH  022%=      5-min Rain = 0
KBI1 042253Z 17005KT 36/11 A2994 RMK A01 T03610111  RH  022%=      5-min Rain = 0
KBI1 042254Z 12008G13KT 36/11 A2994 RMK A01 T03610113  RH  022%=      5-min Rain = 0
KBI1 042255Z 12011KT 36/11 A2994 RMK A01 T03610114  RH  023%=      5-min Rain = 0
KBI1 042256Z 11008G14KT 36/11 A2994 RMK A01 T03600112  RH  022%=      5-min Rain = 0
KBI1 042257Z 14005KT 36/11 A2993 RMK A01 T03580113  RH  023%=      5-min Rain = 0
KBI1 042258Z 13008KT 36/12 A2993 RMK A01 T03580115  RH  023%=      5-min Rain = 0
KBI1 042259Z 13008KT 36/11 A2993 RMK A01 T03590114  RH  023%=      5-min Rain = 0
KBI1 042300Z 14006KT 36/11 A2993 RMK A01 T03590112  RH  023%=      5-min Rain = 0
KBI1 042301Z 13005KT 36/11 A2993 RMK A01 T03580112  RH  023%=      5-min Rain = 0
KBI1 042302Z 14004KT 36/11 A2993 RMK A01 T03580112  RH  023%=      5-min Rain = 0
KBI1 042303Z 13003KT 36/11 A2993 RMK A01 T03590113  RH  023%=      5-min Rain = 0
KBI1 042304Z 06007KT 36/12 A2993 RMK A01 T03590115  RH  023%=      5-min Rain = 0
KBI1 042305Z 05004KT 36/11 A2993 RMK A01 T03600114  RH  023%=      5-min Rain = 0
KBI1 042306Z 04004KT 36/12 A2993 RMK A01 T03590115  RH  023%=      5-min Rain = 0
KBI1 042307Z 06004KT 36/12 A2993 RMK A01 T03590115  RH  023%=      5-min Rain = 0
KBI1 042308Z 08003KT 36/12 A2993 RMK A01 T03600117  RH  023%=      5-min Rain = 0
KBI1 042309Z 13004KT 36/12 A2993 RMK A01 T03620115  RH  023%=      5-min Rain = 0
KBI1 042310Z 13005KT 36/11 A2993 RMK A01 T03620113  RH  022%=      5-min Rain = 0
KBI1 042311Z 07007KT 36/11 A2993 RMK A01 T03620114  RH  022%=      5-min Rain = 0
KBI1 042312Z 08009KT 36/11 A2993 RMK A01 T03620113  RH  022%=      5-min Rain = 0
KBI1 042313Z 10008KT 36/11 A2993 RMK A01 T03610114  RH  023%=      5-min Rain = 0
KBI1 042314Z 11006KT 36/12 A2993 RMK A01 T03600115  RH  023%=      5-min Rain = 0
KBI1 042315Z 09007KT 36/11 A2993 RMK A01 T03600114  RH  023%=      5-min Rain = 0
KBI1 042316Z 11006KT 36/12 A2993 RMK A01 T03610116  RH  023%=      5-min Rain = 0
KBI1 042317Z 14005KT 36/12 A2993 RMK A01 T03610118  RH  023%=      5-min Rain = 0
KBI1 042318Z 14005KT 36/12 A2993 RMK A01 T03620117  RH  023%=      5-min Rain = 0
KBI1 042319Z 15007KT 36/12 A2993 RMK A01 T03610118  RH  023%=      5-min Rain = 0
KBI1 042320Z 14007G12KT 36/12 A2993 RMK A01 T03610119  RH  023%=      5-min Rain = 0
KBI1 042321Z 16007KT 36/12 A2993 RMK A01 T03610118  RH  023%=      5-min Rain = 0
KBI1 042322Z 15005KT 36/12 A2992 RMK A01 T03600117  RH  023%=      5-min Rain = 0
KBI1 042323Z 15005KT 36/12 A2992 RMK A01 T03590118  RH  023%=      5-min Rain = 0
KBI1 042324Z 13005KT 36/12 A2993 RMK A01 T03600120  RH  024%=      5-min Rain = 0
KBI1 042325Z 11008G13KT 36/12 A2993 RMK A01 T03620118  RH  023%=      5-min Rain = 0
KBI1 042326Z 10007KT 36/12 A2993 RMK A01 T03610118  RH  023%=      5-min Rain = 0
KBI1 042327Z 10009KT 36/12 A2993 RMK A01 T03610119  RH  023%=      5-min Rain = 0
KBI1 042328Z 12008KT 36/12 A2993 RMK A01 T03610119  RH  023%=      5-min Rain = 0
KBI1 042329Z 13008KT 36/12 A2993 RMK A01 T03610116  RH  023%=      5-min Rain = 0
KBI1 042330Z 12006KT 36/12 A2993 RMK A01 T03590116  RH  023%=      5-min Rain = 0
KBI1 042331Z 12007KT 36/12 A2992 RMK A01 T03590116  RH  023%=      5-min Rain = 0
KBI1 042332Z 10006G11KT 36/12 A2993 RMK A01 T03590118  RH  023%=      5-min Rain = 0
KBI1 042333Z 09009KT 36/11 A2993 RMK A01 T03600113  RH  023%=      5-min Rain = 0
KBI1 042334Z 10007KT 36/11 A2992 RMK A01 T03580114  RH  023%=      5-min Rain = 0
KBI1 042335Z 12006KT 36/12 A2992 RMK A01 T03580115  RH  023%=      5-min Rain = 0
KBI1 042336Z 12009KT 36/11 A2992 RMK A01 T03570114  RH  023%=      5-min Rain = 0
KBI1 042337Z 13006KT 36/11 A2992 RMK A01 T03570114  RH  023%=      5-min Rain = 0
KBI1 042338Z 10006KT 36/12 A2992 RMK A01 T03580116  RH  023%=      5-min Rain = 0
KBI1 042339Z 09007KT 36/12 A2992 RMK A01 T03590115  RH  023%=      5-min Rain = 0
KBI1 042340Z 08008KT 36/12 A2992 RMK A01 T03590116  RH  023%=      5-min Rain = 0
KBI1 042341Z 07009KT 36/12 A2992 RMK A01 T03580117  RH  023%=      5-min Rain = 0
KBI1 042342Z 08008KT 36/12 A2992 RMK A01 T03570118  RH  024%=      5-min Rain = 0
KBI1 042343Z 09008KT 36/12 A2992 RMK A01 T03570119  RH  024%=      5-min Rain = 0
KBI1 042344Z 12006KT 36/12 A2992 RMK A01 T03570120  RH  024%=      5-min Rain = 0
KBI1 042345Z 12006KT 36/12 A2992 RMK A01 T03580123  RH  024%=      5-min Rain = 0
KBI1 042346Z 12008KT 36/12 A2992 RMK A01 T03590124  RH  024%=      5-min Rain = 0
KBI1 042347Z 14006KT 36/12 A2992 RMK A01 T03600124  RH  024%=      5-min Rain = 0
KBI1 042348Z 14004KT 36/12 A2992 RMK A01 T03600124  RH  024%=      5-min Rain = 0
KBI1 042349Z 13007KT 36/12 A2992 RMK A01 T03610124  RH  024%=      5-min Rain = 0
KBI1 042350Z 13007KT 36/12 A2992 RMK A01 T03600124  RH  024%=      5-min Rain = 0
KBI1 042351Z 13006KT 36/12 A2992 RMK A01 T03570123  RH  024%=      5-min Rain = 0
KBI1 042352Z 10006KT 36/12 A2992 RMK A01 T03560121  RH  024%=      5-min Rain = 0
KBI1 042353Z 11008KT 36/12 A2992 RMK A01 T03570118  RH  024%=      5-min Rain = 0
KBI1 042354Z 11006KT 36/12 A2992 RMK A01 T03580117  RH  023%=      5-min Rain = 0
KBI1 042355Z 10007KT 36/12 A2992 RMK A01 T03580119  RH  024%=      5-min Rain = 0
KBI1 042356Z 09008KT 36/12 A2992 RMK A01 T03590120  RH  024%=      5-min Rain = 0
KBI1 042357Z 11009KT 36/12 A2992 RMK A01 T03590120  RH  024%=      5-min Rain = 0
KBI1 042358Z 12007KT 36/12 A2992 RMK A01 T03580119  RH  024%=      5-min Rain = 0
KBI1 042359Z 09007KT 36/12 A2992 RMK A01 T03580120  RH  024%=      5-min Rain = 0
KBI1 050000Z 09007KT 36/12 A2992 RMK A01 T03580117  RH  023%=      5-min Rain = 0
KBI1 050001Z 07003KT 36/12 A2992 RMK A01 T03560117  RH  024%=      5-min Rain = 0
KBI1 050002Z 09002KT 36/12 A2992 RMK A01 T03550119  RH  024%=      5-min Rain = 0
KBI1 050003Z 15002KT 36/12 A2992 RMK A01 T03560120  RH  024%=      5-min Rain = 0
KBI1 050004Z 10003KT 36/12 A2992 RMK A01 T03590121  RH  024%=      5-min Rain = 0
KBI1 050005Z 10004KT 36/12 A2992 RMK A01 T03600121  RH  024%=      5-min Rain = 0
KBI1 050006Z 11007KT 36/12 A2992 RMK A01 T03590121  RH  024%=      5-min Rain = 0
KBI1 050007Z 09006KT 36/12 A2992 RMK A01 T03590121  RH  024%=      5-min Rain = 0
KBI1 050008Z 09009KT 36/12 A2992 RMK A01 T03580123  RH  024%=      5-min Rain = 0
KBI1 050009Z 11007KT 36/12 A2992 RMK A01 T03570122  RH  024%=      5-min Rain = 0
KBI1 050010Z 14009KT 36/12 A2992 RMK A01 T03570123  RH  024%=      5-min Rain = 0
KBI1 050011Z 13007KT 36/12 A2992 RMK A01 T03570123  RH  024%=      5-min Rain = 0
KBI1 050012Z 13006KT 36/12 A2992 RMK A01 T03570124  RH  025%=      5-min Rain = 0
KBI1 050013Z 11006KT 36/12 A2992 RMK A01 T03570124  RH  025%=      5-min Rain = 0
KBI1 050014Z 09007KT 36/12 A2992 RMK A01 T03580123  RH  024%=      5-min Rain = 0
KBI1 050015Z 10007KT 36/12 A2992 RMK A01 T03570121  RH  024%=      5-min Rain = 0
KBI1 050016Z 10007KT 36/12 A2992 RMK A01 T03550119  RH  024%=      5-min Rain = 0
KBI1 050017Z 09005KT 36/12 A2992 RMK A01 T03550120  RH  024%=      5-min Rain = 0
KBI1 050018Z 09004KT 36/12 A2992 RMK A01 T03550121  RH  024%=      5-min Rain = 0
KBI1 050019Z 09005KT 36/12 A2992 RMK A01 T03550119  RH  024%=      5-min Rain = 0
KBI1 050020Z 11006KT 36/12 A2992 RMK A01 T03560119  RH  024%=      5-min Rain = 0
KBI1 050021Z 10006KT 36/12 A2992 RMK A01 T03560119  RH  024%=      5-min Rain = 0
KBI1 050022Z 11007KT 36/12 A2992 RMK A01 T03550120  RH  024%=      5-min Rain = 0
KBI1 050023Z 12006KT 36/12 A2992 RMK A01 T03550122  RH  025%=      5-min Rain = 0
KBI1 050024Z 09006KT 35/12 A2992 RMK A01 T03540124  RH  025%=      5-min Rain = 0
KBI1 050025Z 09007KT 36/13 A2992 RMK A01 T03550125  RH  025%=      5-min Rain = 0
KBI1 050026Z 09007KT 36/13 A2992 RMK A01 T03550126  RH  025%=      5-min Rain = 0
KBI1 050027Z 11005KT 35/13 A2992 RMK A01 T03540128  RH  026%=      5-min Rain = 0
KBI1 050028Z 12007KT 35/13 A2992 RMK A01 T03540128  RH  026%=      5-min Rain = 0
KBI1 050029Z 12009KT 36/13 A2992 RMK A01 T03550127  RH  025%=      5-min Rain = 0
KBI1 050030Z 12008KT 35/13 A2992 RMK A01 T03540127  RH  026%=      5-min Rain = 0
KBI1 050031Z 12006KT 35/13 A2992 RMK A01 T03530127  RH  026%=      5-min Rain = 0
KBI1 050032Z 10005KT 35/13 A2992 RMK A01 T03530128  RH  026%=      5-min Rain = 0
KBI1 050033Z 11005KT 35/13 A2992 RMK A01 T03530128  RH  026%=      5-min Rain = 0
KBI1 050034Z 11004KT 35/13 A2992 RMK A01 T03540128  RH  026%=      5-min Rain = 0
KBI1 050035Z 11005KT 35/13 A2992 RMK A01 T03530128  RH  026%=      5-min Rain = 0
KBI1 050036Z 12006KT 35/13 A2992 RMK A01 T03540129  RH  026%=      5-min Rain = 0
KBI1 050037Z 13006KT 35/13 A2992 RMK A01 T03530130  RH  026%=      5-min Rain = 0
KBI1 050038Z 13006KT 35/13 A2992 RMK A01 T03530130  RH  026%=      5-min Rain = 0
KBI1 050039Z 13005KT 35/13 A2992 RMK A01 T03530130  RH  026%=      5-min Rain = 0
KBI1 050040Z 13005KT 35/13 A2992 RMK A01 T03530129  RH  026%=      5-min Rain = 0
KBI1 050041Z 12005KT 35/13 A2992 RMK A01 T03520130  RH  026%=      5-min Rain = 0
KBI1 050042Z 12006KT 35/13 A2992 RMK A01 T03520129  RH  026%=      5-min Rain = 0
KBI1 050043Z 09006KT 35/13 A2992 RMK A01 T03520127  RH  026%=      5-min Rain = 0
KBI1 050044Z 08006KT 35/13 A2992 RMK A01 T03520126  RH  026%=      5-min Rain = 0
KBI1 050045Z 11004KT 35/13 A2992 RMK A01 T03510126  RH  026%=      5-min Rain = 0
KBI1 050046Z 09005KT 35/13 A2992 RMK A01 T03510125  RH  026%=      5-min Rain = 0
KBI1 050047Z 09005KT 35/13 A2992 RMK A01 T03510126  RH  026%=      5-min Rain = 0
KBI1 050048Z 08006KT 35/13 A2992 RMK A01 T03510128  RH  026%=      5-min Rain = 0
KBI1 050049Z 09008KT 35/13 A2992 RMK A01 T03510129  RH  026%=      5-min Rain = 0
KBI1 050050Z 10005KT 35/13 A2992 RMK A01 T03510130  RH  026%=      5-min Rain = 0
KBI1 050051Z 10005KT 35/13 A2992 RMK A01 T03500130  RH  027%=      5-min Rain = 0
KBI1 050052Z 10009KT 35/13 A2992 RMK A01 T03500129  RH  026%=      5-min Rain = 0
KBI1 050053Z 12008KT 35/13 A2992 RMK A01 T03500129  RH  026%=      5-min Rain = 0
KBI1 050054Z 12007KT 35/13 A2992 RMK A01 T03490128  RH  026%=      5-min Rain = 0
KBI1 050055Z 12007KT 35/13 A2992 RMK A01 T03490128  RH  026%=      5-min Rain = 0
KBI1 050056Z 12006KT 35/13 A2992 RMK A01 T03490128  RH  026%=      5-min Rain = 0
KBI1 050057Z 11004KT 35/13 A2993 RMK A01 T03490130  RH  027%=      5-min Rain = 0
KBI1 050058Z 10005KT 35/13 A2993 RMK A01 T03490131  RH  027%=      5-min Rain = 0
KBI1 050059Z 11006KT 35/13 A2993 RMK A01 T03490131  RH  027%=      5-min Rain = 0
KBI1 050100Z 11005KT 35/13 A2993 RMK A01 T03490131  RH  027%=      5-min Rain = 0
KBI1 050101Z 10008KT 35/13 A2993 RMK A01 T03490131  RH  027%=      5-min Rain = 0
KBI1 050102Z 12006KT 35/13 A2993 RMK A01 T03490130  RH  027%=      5-min Rain = 0
KBI1 050103Z 12005KT 35/13 A2993 RMK A01 T03480131  RH  027%=      5-min Rain = 0
KBI1 050104Z 12005KT 35/13 A2993 RMK A01 T03480130  RH  027%=      5-min Rain = 0
KBI1 050105Z 13007KT 35/13 A2993 RMK A01 T03480129  RH  027%=      5-min Rain = 0
KBI1 050106Z 10005KT 35/13 A2993 RMK A01 T03480128  RH  027%=      5-min Rain = 0
KBI1 050107Z 10006KT 35/13 A2993 RMK A01 T03470129  RH  027%=      5-min Rain = 0
KBI1 050108Z 10006KT 35/13 A2993 RMK A01 T03470128  RH  027%=      5-min Rain = 0
KBI1 050109Z 10006KT 35/13 A2993 RMK A01 T03470128  RH  027%=      5-min Rain = 0
KBI1 050110Z 11006KT 35/13 A2993 RMK A01 T03470129  RH  027%=      5-min Rain = 0
KBI1 050111Z 10006KT 35/13 A2993 RMK A01 T03460129  RH  027%=      5-min Rain = 0
KBI1 050112Z 11006KT 35/13 A2993 RMK A01 T03460129  RH  027%=      5-min Rain = 0
KBI1 050113Z 10006KT 35/13 A2993 RMK A01 T03450129  RH  027%=      5-min Rain = 0
KBI1 050114Z 10006KT 35/13 A2993 RMK A01 T03450129  RH  027%=      5-min Rain = 0
KBI1 050115Z 11008KT 35/13 A2993 RMK A01 T03450129  RH  027%=      5-min Rain = 0
KBI1 050116Z 10006KT 34/13 A2993 RMK A01 T03440129  RH  027%=      5-min Rain = 0
KBI1 050117Z 12005KT 34/13 A2993 RMK A01 T03440129  RH  027%=      5-min Rain = 0
KBI1 050118Z 11006KT 34/13 A2993 RMK A01 T03430129  RH  027%=      5-min Rain = 0
KBI1 050119Z 11006KT 34/13 A2993 RMK A01 T03440129  RH  027%=      5-min Rain = 0
KBI1 050120Z 11005KT 34/13 A2993 RMK A01 T03430128  RH  027%=      5-min Rain = 0
KBI1 050121Z 12004KT 34/13 A2993 RMK A01 T03430128  RH  027%=      5-min Rain = 0
KBI1 050122Z 12005KT 34/13 A2993 RMK A01 T03430128  RH  027%=      5-min Rain = 0
KBI1 050123Z 11005KT 34/13 A2993 RMK A01 T03420128  RH  027%=      5-min Rain = 0
KBI1 050124Z 12005KT 34/13 A2993 RMK A01 T03420127  RH  027%=      5-min Rain = 0
KBI1 050125Z 10007KT 34/13 A2993 RMK A01 T03420128  RH  027%=      5-min Rain = 0
KBI1 050126Z 10006KT 34/13 A2993 RMK A01 T03420128  RH  027%=      5-min Rain = 0
KBI1 050127Z 10004KT 34/13 A2993 RMK A01 T03420128  RH  028%=      5-min Rain = 0
KBI1 050128Z 09004KT 34/13 A2993 RMK A01 T03410130  RH  028%=      5-min Rain = 0
KBI1 050129Z 10005KT 34/13 A2993 RMK A01 T03410130  RH  028%=      5-min Rain = 0
KBI1 050130Z 10005KT 34/13 A2993 RMK A01 T03400129  RH  028%=      5-min Rain = 0
KBI1 050131Z 10005KT 34/13 A2994 RMK A01 T03390129  RH  028%=      5-min Rain = 0
KBI1 050132Z 10004KT 34/13 A2994 RMK A01 T03390130  RH  028%=      5-min Rain = 0
KBI1 050133Z 10005KT 34/13 A2994 RMK A01 T03380130  RH  028%=      5-min Rain = 0
KBI1 050134Z 10005KT 34/13 A2994 RMK A01 T03380130  RH  028%=      5-min Rain = 0
KBI1 050135Z 10004KT 34/13 A2994 RMK A01 T03380130  RH  028%=      5-min Rain = 0
KBI1 050136Z 11004KT 34/13 A2994 RMK A01 T03380131  RH  029%=      5-min Rain = 0
KBI1 050137Z 12004KT 34/13 A2994 RMK A01 T03370131  RH  029%=      5-min Rain = 0
KBI1 050138Z 11004KT 34/13 A2994 RMK A01 T03360132  RH  029%=      5-min Rain = 0
KBI1 050139Z 11004KT 34/13 A2994 RMK A01 T03350131  RH  029%=      5-min Rain = 0
KBI1 050140Z 10004KT 34/13 A2994 RMK A01 T03350132  RH  029%=      5-min Rain = 0
KBI1 050141Z 10003KT 33/13 A2994 RMK A01 T03340132  RH  029%=      5-min Rain = 0
KBI1 050142Z 11004KT 33/13 A2994 RMK A01 T03340132  RH  029%=      5-min Rain = 0
KBI1 050143Z 10005KT 33/13 A2994 RMK A01 T03340131  RH  029%=      5-min Rain = 0
KBI1 050144Z 10003KT 33/13 A2994 RMK A01 T03330131  RH  029%=      5-min Rain = 0
KBI1 050145Z 09004KT 33/13 A2994 RMK A01 T03330131  RH  029%=      5-min Rain = 0
KBI1 050146Z 08005KT 33/13 A2994 RMK A01 T03330131  RH  029%=      5-min Rain = 0
KBI1 050147Z 09004KT 33/13 A2994 RMK A01 T03330131  RH  029%=      5-min Rain = 0
KBI1 050148Z 09005KT 33/13 A2994 RMK A01 T03330132  RH  029%=      5-min Rain = 0
KBI1 050149Z 09004KT 33/13 A2994 RMK A01 T03330132  RH  029%=      5-min Rain = 0
KBI1 050150Z 09004KT 33/13 A2994 RMK A01 T03330131  RH  029%=      5-min Rain = 0
KBI1 050151Z 08005KT 33/13 A2994 RMK A01 T03330131  RH  029%=      5-min Rain = 0
KBI1 050152Z 08005KT 33/13 A2994 RMK A01 T03330131  RH  030%=      5-min Rain = 0
KBI1 050153Z 08004KT 33/13 A2994 RMK A01 T03330131  RH  030%=      5-min Rain = 0
KBI1 050154Z 08004KT 33/13 A2994 RMK A01 T03320131  RH  030%=      5-min Rain = 0
KBI1 050155Z 08005KT 33/13 A2994 RMK A01 T03320131  RH  030%=      5-min Rain = 0
KBI1 050156Z 08005KT 33/13 A2994 RMK A01 T03320131  RH  030%=      5-min Rain = 0
KBI1 050157Z 08005KT 33/13 A2994 RMK A01 T03320131  RH  030%=      5-min Rain = 0
KBI1 050158Z 08005KT 33/13 A2994 RMK A01 T03310131  RH  030%=      5-min Rain = 0
KBI1 050159Z 08005KT 33/13 A2994 RMK A01 T03310131  RH  030%=      5-min Rain = 0
KBI1 050200Z 08005KT 33/13 A2994 RMK A01 T03310131  RH  030%=      5-min Rain = 0
KBI1 050201Z 09005KT 33/13 A2994 RMK A01 T03310131  RH  030%=      5-min Rain = 0
KBI1 050202Z 08005KT 33/13 A2994 RMK A01 T03310131  RH  030%=      5-min Rain = 0
KBI1 050203Z 08005KT 33/13 A2994 RMK A01 T03310131  RH  030%=      5-min Rain = 0
KBI1 050204Z 08004KT 33/13 A2994 RMK A01 T03310131  RH  030%=      5-min Rain = 0
KBI1 050205Z 08005KT 33/13 A2994 RMK A01 T03300131  RH  030%=      5-min Rain = 0
KBI1 050206Z 09005KT 33/13 A2994 RMK A01 T03300131  RH  030%=      5-min Rain = 0
KBI1 050207Z 08005KT 33/13 A2994 RMK A01 T03290131  RH  030%=      5-min Rain = 0
KBI1 050208Z 08004KT 33/13 A2994 RMK A01 T03290132  RH  030%=      5-min Rain = 0
KBI1 050209Z 08004KT 33/13 A2994 RMK A01 T03280132  RH  030%=      5-min Rain = 0
KBI1 050210Z 08004KT 33/13 A2994 RMK A01 T03280132  RH  030%=      5-min Rain = 0
KBI1 050211Z 08004KT 33/13 A2994 RMK A01 T03270132  RH  031%=      5-min Rain = 0
KBI1 050212Z 08005KT 33/13 A2995 RMK A01 T03270132  RH  031%=      5-min Rain = 0
KBI1 050213Z 08005KT 33/13 A2995 RMK A01 T03270132  RH  031%=      5-min Rain = 0
KBI1 050214Z 08004KT 33/13 A2995 RMK A01 T03270132  RH  031%=      5-min Rain = 0
KBI1 050215Z 08004KT 33/13 A2995 RMK A01 T03270133  RH  031%=      5-min Rain = 0
KBI1 050216Z 07004KT 33/13 A2995 RMK A01 T03270133  RH  031%=      5-min Rain = 0
KBI1 050217Z 08004KT 33/13 A2995 RMK A01 T03260133  RH  031%=      5-min Rain = 0
KBI1 050218Z 08004KT 33/13 A2995 RMK A01 T03260133  RH  031%=      5-min Rain = 0
KBI1 050219Z 08004KT 33/13 A2995 RMK A01 T03250134  RH  031%=      5-min Rain = 0
KBI1 050220Z 08005KT 32/13 A2995 RMK A01 T03240134  RH  032%=      5-min Rain = 0
KBI1 050221Z 09004KT 32/13 A2995 RMK A01 T03230134  RH  032%=      5-min Rain = 0
KBI1 050222Z 08005KT 32/13 A2995 RMK A01 T03230134  RH  032%=      5-min Rain = 0
KBI1 050223Z 08004KT 32/13 A2995 RMK A01 T03230134  RH  032%=      5-min Rain = 0
KBI1 050224Z 08004KT 32/14 A2995 RMK A01 T03220135  RH  032%=      5-min Rain = 0
KBI1 050225Z 08004KT 32/14 A2995 RMK A01 T03210135  RH  032%=      5-min Rain = 0
KBI1 050226Z 08004KT 32/14 A2995 RMK A01 T03200135  RH  032%=      5-min Rain = 0
KBI1 050227Z 08005KT 32/14 A2995 RMK A01 T03190135  RH  033%=      5-min Rain = 0
KBI1 050228Z 08004KT 32/14 A2995 RMK A01 T03190135  RH  033%=      5-min Rain = 0
KBI1 050229Z 08004KT 32/14 A2995 RMK A01 T03190135  RH  033%=      5-min Rain = 0
KBI1 050230Z 08005KT 32/14 A2995 RMK A01 T03200136  RH  033%=      5-min Rain = 0
KBI1 050231Z 08006KT 32/14 A2995 RMK A01 T03190135  RH  033%=      5-min Rain = 0
KBI1 050232Z 08004KT 32/14 A2995 RMK A01 T03200135  RH  033%=      5-min Rain = 0
KBI1 050233Z 08005KT 32/14 A2995 RMK A01 T03190136  RH  033%=      5-min Rain = 0
KBI1 050234Z 08004KT 32/14 A2995 RMK A01 T03190136  RH  033%=      5-min Rain = 0
KBI1 050235Z 08004KT 32/14 A2995 RMK A01 T03190136  RH  033%=      5-min Rain = 0
KBI1 050236Z 08004KT 32/14 A2995 RMK A01 T03180136  RH  033%=      5-min Rain = 0
KBI1 050237Z 08005KT 32/14 A2995 RMK A01 T03170136  RH  033%=      5-min Rain = 0
KBI1 050238Z 09005KT 32/14 A2995 RMK A01 T03170136  RH  033%=      5-min Rain = 0
KBI1 050239Z 08005KT 32/14 A2995 RMK A01 T03160135  RH  033%=      5-min Rain = 0
KBI1 050240Z 08005KT 32/14 A2995 RMK A01 T03160136  RH  033%=      5-min Rain = 0
KBI1 050241Z 08005KT 32/14 A2995 RMK A01 T03160135  RH  033%=      5-min Rain = 0
KBI1 050242Z 09005KT 32/14 A2996 RMK A01 T03170136  RH  033%=      5-min Rain = 0
KBI1 050243Z 08004KT 32/14 A2996 RMK A01 T03170136  RH  033%=      5-min Rain = 0
KBI1 050244Z 08005KT 32/14 A2996 RMK A01 T03160137  RH  034%=      5-min Rain = 0
KBI1 050245Z 08005KT 32/14 A2996 RMK A01 T03150136  RH  034%=      5-min Rain = 0
KBI1 050246Z 08005KT 32/14 A2996 RMK A01 T03150136  RH  034%=      5-min Rain = 0
KBI1 050247Z 08005KT 32/14 A2996 RMK A01 T03150137  RH  034%=      5-min Rain = 0
KBI1 050248Z 08005KT 32/14 A2996 RMK A01 T03150136  RH  034%=      5-min Rain = 0
KBI1 050249Z 08005KT 32/14 A2996 RMK A01 T03150137  RH  034%=      5-min Rain = 0
KBI1 050250Z 08005KT 31/14 A2996 RMK A01 T03140136  RH  034%=      5-min Rain = 0
KBI1 050251Z 08006KT 32/14 A2996 RMK A01 T03150136  RH  034%=      5-min Rain = 0
KBI1 050252Z 08005KT 31/14 A2996 RMK A01 T03140136  RH  034%=      5-min Rain = 0
KBI1 050253Z 09005KT 31/14 A2996 RMK A01 T03140136  RH  034%=      5-min Rain = 0
KBI1 050254Z 09005KT 32/14 A2996 RMK A01 T03150136  RH  034%=      5-min Rain = 0
KBI1 050255Z 09005KT 32/14 A2996 RMK A01 T03150136  RH  034%=      5-min Rain = 0
KBI1 050256Z 09004KT 31/14 A2996 RMK A01 T03140135  RH  034%=      5-min Rain = 0
KBI1 050257Z 09004KT 31/14 A2996 RMK A01 T03140136  RH  034%=      5-min Rain = 0
KBI1 050258Z 09005KT 31/14 A2996 RMK A01 T03130136  RH  034%=      5-min Rain = 0
KBI1 050259Z 09006KT 31/14 A2996 RMK A01 T03120135  RH  034%=      5-min Rain = 0
KBI1 050300Z 09005KT 31/14 A2996 RMK A01 T03120135  RH  034%=      5-min Rain = 0
KBI1 050301Z 09005KT 31/14 A2996 RMK A01 T03130135  RH  034%=      5-min Rain = 0
KBI1 050302Z 09005KT 31/14 A2996 RMK A01 T03130135  RH  034%=      5-min Rain = 0
KBI1 050303Z 09004KT 31/14 A2996 RMK A01 T03130135  RH  034%=      5-min Rain = 0
KBI1 050304Z 09005KT 31/14 A2996 RMK A01 T03130137  RH  034%=      5-min Rain = 0
KBI1 050305Z 09005KT 31/14 A2997 RMK A01 T03120136  RH  034%=      5-min Rain = 0
KBI1 050306Z 09004KT 31/14 A2997 RMK A01 T03110136  RH  034%=      5-min Rain = 0
KBI1 050307Z 09004KT 31/14 A2997 RMK A01 T03110136  RH  034%=      5-min Rain = 0
KBI1 050308Z 09006KT 31/14 A2997 RMK A01 T03110136  RH  034%=      5-min Rain = 0
KBI1 050309Z 10005KT 31/14 A2997 RMK A01 T03110136  RH  034%=      5-min Rain = 0
KBI1 050310Z 10005KT 31/14 A2997 RMK A01 T03110136  RH  034%=      5-min Rain = 0
KBI1 050311Z 11004KT 31/14 A2997 RMK A01 T03110136  RH  035%=      5-min Rain = 0
KBI1 050312Z 10004KT 31/14 A2997 RMK A01 T03100137  RH  035%=      5-min Rain = 0
KBI1 050313Z 11004KT 31/14 A2997 RMK A01 T03090136  RH  035%=      5-min Rain = 0
KBI1 050314Z 10004KT 31/14 A2997 RMK A01 T03090137  RH  035%=      5-min Rain = 0
KBI1 050315Z 11003KT 31/14 A2997 RMK A01 T03080137  RH  035%=      5-min Rain = 0
KBI1 050316Z 11002KT 31/14 A2997 RMK A01 T03070137  RH  035%=      5-min Rain = 0
KBI1 050317Z 11003KT 31/14 A2997 RMK A01 T03060138  RH  036%=      5-min Rain = 0
KBI1 050318Z 12003KT 31/14 A2997 RMK A01 T03060138  RH  036%=      5-min Rain = 0
KBI1 050319Z 11003KT 31/14 A2997 RMK A01 T03050139  RH  036%=      5-min Rain = 0
KBI1 050320Z 12004KT 30/14 A2997 RMK A01 T03030139  RH  037%=      5-min Rain = 0
KBI1 050321Z 12003KT 30/14 A2997 RMK A01 T03020140  RH  037%=      5-min Rain = 0
KBI1 050322Z 12004KT 30/14 A2997 RMK A01 T03010140  RH  037%=      5-min Rain = 0
KBI1 050323Z 12004KT 30/14 A2997 RMK A01 T03000141  RH  038%=      5-min Rain = 0
KBI1 050324Z 12004KT 30/14 A2997 RMK A01 T02990141  RH  038%=      5-min Rain = 0
KBI1 050325Z 11004KT 30/14 A2997 RMK A01 T02980142  RH  038%=      5-min Rain = 0
KBI1 050326Z 12005KT 30/14 A2997 RMK A01 T02970142  RH  039%=      5-min Rain = 0
KBI1 050327Z 11004KT 30/14 A2997 RMK A01 T02960142  RH  039%=      5-min Rain = 0
KBI1 050328Z 11004KT 30/14 A2997 RMK A01 T02950142  RH  039%=      5-min Rain = 0
KBI1 050329Z 11004KT 30/14 A2997 RMK A01 T02950142  RH  039%=      5-min Rain = 0
KBI1 050330Z 11004KT 30/14 A2997 RMK A01 T02950142  RH  039%=      5-min Rain = 0
KBI1 050331Z 11005KT 30/14 A2997 RMK A01 T02950142  RH  039%=      5-min Rain = 0
KBI1 050332Z 11004KT 29/14 A2997 RMK A01 T02940142  RH  039%=      5-min Rain = 0
KBI1 050333Z 11003KT 29/14 A2997 RMK A01 T02940142  RH  039%=      5-min Rain = 0
KBI1 050334Z 10004KT 29/14 A2997 RMK A01 T02940142  RH  040%=      5-min Rain = 0
KBI1 050335Z 10004KT 29/14 A2997 RMK A01 T02930141  RH  039%=      5-min Rain = 0
KBI1 050336Z 11003KT 29/14 A2997 RMK A01 T02940141  RH  039%=      5-min Rain = 0
KBI1 050337Z 11004KT 29/14 A2997 RMK A01 T02940141  RH  039%=      5-min Rain = 0
KBI1 050338Z 10003KT 29/14 A2997 RMK A01 T02940141  RH  039%=      5-min Rain = 0
KBI1 050339Z 10003KT 29/14 A2997 RMK A01 T02940141  RH  039%=      5-min Rain = 0
KBI1 050340Z 09004KT 29/14 A2997 RMK A01 T02940141  RH  039%=      5-min Rain = 0
KBI1 050341Z 09003KT 29/14 A2997 RMK A01 T02940142  RH  039%=      5-min Rain = 0
KBI1 050342Z 08004KT 29/14 A2997 RMK A01 T02940142  RH  040%=      5-min Rain = 0
KBI1 050343Z 09004KT 29/14 A2997 RMK A01 T02930142  RH  040%=      5-min Rain = 0
KBI1 050344Z 09003KT 29/14 A2997 RMK A01 T02930142  RH  040%=      5-min Rain = 0
KBI1 050345Z 09003KT 29/14 A2997 RMK A01 T02930142  RH  040%=      5-min Rain = 0
KBI1 050346Z 10003KT 29/14 A2997 RMK A01 T02930142  RH  040%=      5-min Rain = 0
KBI1 050347Z 10003KT 29/14 A2997 RMK A01 T02940143  RH  040%=      5-min Rain = 0
KBI1 050348Z 10003KT 29/14 A2998 RMK A01 T02930142  RH  040%=      5-min Rain = 0
KBI1 050349Z 10003KT 29/14 A2998 RMK A01 T02930142  RH  040%=      5-min Rain = 0
KBI1 050350Z 10004KT 29/14 A2998 RMK A01 T02930142  RH  040%=      5-min Rain = 0
KBI1 050351Z 10003KT 29/14 A2998 RMK A01 T02930142  RH  040%=      5-min Rain = 0
KBI1 050352Z 09003KT 29/14 A2997 RMK A01 T02930142  RH  040%=      5-min Rain = 0
KBI1 050353Z 10004KT 29/14 A2997 RMK A01 T02930142  RH  040%=      5-min Rain = 0
KBI1 050354Z 10004KT 29/14 A2997 RMK A01 T02930142  RH  040%=      5-min Rain = 0
KBI1 050355Z 11003KT 29/14 A2997 RMK A01 T02930142  RH  040%=      5-min Rain = 0
KBI1 050356Z 10003KT 29/14 A2997 RMK A01 T02920142  RH  040%=      5-min Rain = 0
KBI1 050357Z 10003KT 29/14 A2997 RMK A01 T02920143  RH  040%=      5-min Rain = 0
KBI1 050358Z 10004KT 29/14 A2997 RMK A01 T02910143  RH  040%=      5-min Rain = 0
KBI1 050359Z 09003KT 29/14 A2997 RMK A01 T02910143  RH  040%=      5-min Rain = 0
KBI1 050400Z 10003KT 29/14 A2997 RMK A01 T02910143  RH  040%=      5-min Rain = 0
KBI1 050401Z 10003KT 29/14 A2997 RMK A01 T02910143  RH  040%=      5-min Rain = 0
KBI1 050402Z 11004KT 29/14 A2997 RMK A01 T02900143  RH  040%=      5-min Rain = 0
KBI1 050403Z 11003KT 29/14 A2997 RMK A01 T02900143  RH  040%=      5-min Rain = 0
KBI1 050404Z 11004KT 29/14 A2997 RMK A01 T02900142  RH  040%=      5-min Rain = 0
KBI1 050405Z 11003KT 29/14 A2997 RMK A01 T02900142  RH  040%=      5-min Rain = 0
KBI1 050406Z 12004KT 29/14 A2997 RMK A01 T02900142  RH  040%=      5-min Rain = 0
KBI1 050407Z 12003KT 29/14 A2997 RMK A01 T02900142  RH  040%=      5-min Rain = 0
KBI1 050408Z 12004KT 29/14 A2997 RMK A01 T02900142  RH  040%=      5-min Rain = 0
KBI1 050409Z 12005KT 29/14 A2997 RMK A01 T02900142  RH  040%=      5-min Rain = 0
KBI1 050410Z 11004KT 29/14 A2997 RMK A01 T02900142  RH  040%=      5-min Rain = 0
KBI1 050411Z 11004KT 29/14 A2997 RMK A01 T02900142  RH  041%=      5-min Rain = 0
KBI1 050412Z 11004KT 29/14 A2997 RMK A01 T02900143  RH  041%=      5-min Rain = 0
KBI1 050413Z 11004KT 29/14 A2997 RMK A01 T02890143  RH  041%=      5-min Rain = 0
KBI1 050414Z 11004KT 29/14 A2997 RMK A01 T02890143  RH  041%=      5-min Rain = 0
KBI1 050415Z 11004KT 29/14 A2997 RMK A01 T02890143  RH  041%=      5-min Rain = 0
KBI1 050416Z 11004KT 29/14 A2997 RMK A01 T02890143  RH  041%=      5-min Rain = 0
KBI1 050417Z 11004KT 29/14 A2997 RMK A01 T02880143  RH  041%=      5-min Rain = 0
KBI1 050418Z 11004KT 29/14 A2997 RMK A01 T02880143  RH  041%=      5-min Rain = 0
KBI1 050419Z 11003KT 29/14 A2997 RMK A01 T02880143  RH  041%=      5-min Rain = 0
KBI1 050420Z 11003KT 29/14 A2997 RMK A01 T02880143  RH  041%=      5-min Rain = 0
KBI1 050421Z 11004KT 29/14 A2997 RMK A01 T02880142  RH  041%=      5-min Rain = 0
KBI1 050422Z 11004KT 29/14 A2997 RMK A01 T02880142  RH  041%=      5-min Rain = 0
KBI1 050423Z 10003KT 29/14 A2997 RMK A01 T02880141  RH  041%=      5-min Rain = 0
KBI1 050424Z 10004KT 29/14 A2997 RMK A01 T02880141  RH  041%=      5-min Rain = 0
KBI1 050425Z 10003KT 29/14 A2997 RMK A01 T02880141  RH  040%=      5-min Rain = 0
KBI1 050426Z 10003KT 29/14 A2997 RMK A01 T02890141  RH  040%=      5-min Rain = 0
KBI1 050427Z 10003KT 29/14 A2997 RMK A01 T02890141  RH  041%=      5-min Rain = 0
KBI1 050428Z 11003KT 29/14 A2997 RMK A01 T02880141  RH  041%=      5-min Rain = 0
KBI1 050429Z 11004KT 29/14 A2997 RMK A01 T02880142  RH  041%=      5-min Rain = 0
KBI1 050430Z 11004KT 29/14 A2997 RMK A01 T02880141  RH  041%=      5-min Rain = 0
KBI1 050431Z 10003KT 29/14 A2997 RMK A01 T02880141  RH  041%=      5-min Rain = 0
KBI1 050432Z 10003KT 29/14 A2997 RMK A01 T02880141  RH  041%=      5-min Rain = 0
KBI1 050433Z 11004KT 29/14 A2997 RMK A01 T02880142  RH  041%=      5-min Rain = 0
KBI1 050434Z 11004KT 29/14 A2997 RMK A01 T02880142  RH  041%=      5-min Rain = 0
KBI1 050435Z 12004KT 29/14 A2997 RMK A01 T02870141  RH  041%=      5-min Rain = 0
KBI1 050436Z 11004KT 29/14 A2997 RMK A01 T02880141  RH  041%=      5-min Rain = 0
KBI1 050437Z 11004KT 29/14 A2997 RMK A01 T02870140  RH  041%=      5-min Rain = 0
KBI1 050438Z 11003KT 29/14 A2997 RMK A01 T02870140  RH  040%=      5-min Rain = 0
KBI1 050439Z 11003KT 29/14 A2997 RMK A01 T02880140  RH  041%=      5-min Rain = 0
KBI1 050440Z 11003KT 29/14 A2997 RMK A01 T02870140  RH  041%=      5-min Rain = 0
KBI1 050441Z 10002KT 29/14 A2997 RMK A01 T02870140  RH  041%=      5-min Rain = 0
KBI1 050442Z 11002KT 29/14 A2997 RMK A01 T02880140  RH  040%=      5-min Rain = 0
KBI1 050443Z 10003KT 29/14 A2997 RMK A01 T02870140  RH  040%=      5-min Rain = 0
KBI1 050444Z 10002KT 29/14 A2997 RMK A01 T02870140  RH  041%=      5-min Rain = 0
KBI1 050445Z 11002KT 29/14 A2997 RMK A01 T02870140  RH  041%=      5-min Rain = 0
KBI1 050446Z 11002KT 29/14 A2997 RMK A01 T02870141  RH  041%=      5-min Rain = 0
KBI1 050447Z 11003KT 29/14 A2997 RMK A01 T02860140  RH  041%=      5-min Rain = 0
KBI1 050448Z 11002KT 29/14 A2997 RMK A01 T02860140  RH  041%=      5-min Rain = 0
KBI1 050449Z 12002KT 29/14 A2997 RMK A01 T02850140  RH  041%=      5-min Rain = 0
KBI1 050450Z 10002KT 29/14 A2997 RMK A01 T02850140  RH  041%=      5-min Rain = 0
KBI1 050451Z 11002KT 28/14 A2997 RMK A01 T02840140  RH  041%=      5-min Rain = 0
KBI1 050452Z 11003KT 28/14 A2997 RMK A01 T02840140  RH  041%=      5-min Rain = 0
KBI1 050453Z 12004KT 28/14 A2997 RMK A01 T02840140  RH  041%=      5-min Rain = 0
KBI1 050454Z 12004KT 28/14 A2997 RMK A01 T02840140  RH  041%=      5-min Rain = 0
KBI1 050455Z 12004KT 28/14 A2997 RMK A01 T02840140  RH  041%=      5-min Rain = 0
KBI1 050456Z 12004KT 28/14 A2997 RMK A01 T02840140  RH  041%=      5-min Rain = 0
KBI1 050457Z 12004KT 28/14 A2997 RMK A01 T02840140  RH  041%=      5-min Rain = 0
KBI1 050458Z 12004KT 28/14 A2996 RMK A01 T02830140  RH  042%=      5-min Rain = 0
KBI1 050459Z 12004KT 28/14 A2996 RMK A01 T02830140  RH  042%=      5-min Rain = 0

Page generated in 0.0857 seconds.